<?xml version="1.0" encoding="UTF-8" standalone="no" ?>
<gpx xmlns="http://www.topografix.com/GPX/1/1" xmlns:xsi="http://www.w3.org/2001/XMLSchema-instance" xsi:schemaLocation="http://www.topografix.com/GPX/1/1 http://www.topografix.com/GPX/1/1/gpx.xsd" version="1.1" creator="VisuGPX - https://www.visugpx.com">
  <metadata>
    <name>Autour de St Laurent oingt1</name>
  </metadata>
  <trk>
    <name><![CDATA[Autour de St Laurent oingt1]]></name>
    <extensions>
      <line xmlns="http://www.topografix.com/GPX/gpx_style/0/2">
        <color>0000FF</color>
        <width>4</width>
      </line>
    </extensions>
    <trkseg>
      <trkpt lat="45.94565" lon="4.53641">
        <ele>272.52326919108</ele>
        <time>2022-03-09T12:30:00.000Z</time>
        <extensions>
          <visugpx:TrkExtension xmlns:visugpx="https://www.visugpx.com/editgpx/">
            <visugpx:node>2</visugpx:node>
            </visugpx:TrkExtension>
        </extensions>
      </trkpt>
      <trkpt lat="45.94561" lon="4.53644">
        <ele>272.52581970487</ele>
        <time>2022-03-09T12:30:01.101Z</time>
      </trkpt>
      <trkpt lat="45.94562" lon="4.53649">
        <ele>272.56873309214</ele>
        <time>2022-03-09T12:30:02.087Z</time>
      </trkpt>
      <trkpt lat="45.94565" lon="4.53651">
        <ele>272.61085876793</ele>
        <time>2022-03-09T12:30:02.996Z</time>
      </trkpt>
      <trkpt lat="45.9457" lon="4.53651">
        <ele>272.65862541537</ele>
        <time>2022-03-09T12:30:04.326Z</time>
      </trkpt>
      <trkpt lat="45.94573" lon="4.53654">
        <ele>272.76634720833</ele>
        <time>2022-03-09T12:30:05.542Z</time>
      </trkpt>
      <trkpt lat="45.94574" lon="4.53656">
        <ele>272.88458066969</ele>
        <time>2022-03-09T12:30:06.373Z</time>
      </trkpt>
      <trkpt lat="45.94567" lon="4.53673">
        <ele>273.07197848667</ele>
        <time>2022-03-09T12:30:10.185Z</time>
      </trkpt>
      <trkpt lat="45.94563" lon="4.53676">
        <ele>273.23055195927</ele>
        <time>2022-03-09T12:30:11.801Z</time>
      </trkpt>
      <trkpt lat="45.94554" lon="4.53667">
        <ele>273.33139995867</ele>
        <time>2022-03-09T12:30:14.708Z</time>
      </trkpt>
      <trkpt lat="45.94529" lon="4.53638">
        <ele>273.48306688218</ele>
        <time>2022-03-09T12:30:22.860Z</time>
      </trkpt>
      <trkpt lat="45.94511" lon="4.53614">
        <ele>273.73502789385</ele>
        <time>2022-03-09T12:30:29.439Z</time>
      </trkpt>
      <trkpt lat="45.94496" lon="4.53589">
        <ele>273.91419975885</ele>
        <time>2022-03-09T12:30:35.444Z</time>
      </trkpt>
      <trkpt lat="45.94485" lon="4.53561">
        <ele>274.2543780916</ele>
        <time>2022-03-09T12:30:41.754Z</time>
      </trkpt>
      <trkpt lat="45.94469" lon="4.53505">
        <ele>274.57439889386</ele>
        <time>2022-03-09T12:30:52.742Z</time>
      </trkpt>
      <trkpt lat="45.94441" lon="4.53433">
        <ele>275.13344335917</ele>
        <time>2022-03-09T12:31:08.037Z</time>
      </trkpt>
      <trkpt lat="45.94436" lon="4.53425">
        <ele>275.708519208</ele>
        <time>2022-03-09T12:31:11.892Z</time>
      </trkpt>
      <trkpt lat="45.94431" lon="4.5342">
        <ele>276.34739659366</ele>
        <time>2022-03-09T12:31:15.931Z</time>
      </trkpt>
      <trkpt lat="45.94426" lon="4.53418">
        <ele>277.03612318061</ele>
        <time>2022-03-09T12:31:20.741Z</time>
      </trkpt>
      <trkpt lat="45.94417" lon="4.53421">
        <ele>277.78236042199</ele>
        <time>2022-03-09T12:31:25.655Z</time>
      </trkpt>
      <trkpt lat="45.94402" lon="4.53434">
        <ele>278.62195756102</ele>
        <time>2022-03-09T12:31:32.992Z</time>
      </trkpt>
      <trkpt lat="45.94379" lon="4.53466">
        <ele>279.75048319211</ele>
        <time>2022-03-09T12:31:44.471Z</time>
      </trkpt>
      <trkpt lat="45.9436" lon="4.53534">
        <ele>280.94282835806</ele>
        <time>2022-03-09T12:32:00.221Z</time>
      </trkpt>
      <trkpt lat="45.94346" lon="4.53571">
        <ele>281.9308669587</ele>
        <time>2022-03-09T12:32:10.514Z</time>
      </trkpt>
      <trkpt lat="45.94326" lon="4.53608">
        <ele>283.02682176262</ele>
        <time>2022-03-09T12:32:21.951Z</time>
      </trkpt>
      <trkpt lat="45.94303" lon="4.53636">
        <ele>284.1763314598</ele>
        <time>2022-03-09T12:32:33.199Z</time>
      </trkpt>
      <trkpt lat="45.94271" lon="4.53663">
        <ele>285.31392059043</ele>
        <time>2022-03-09T12:32:45.727Z</time>
      </trkpt>
      <trkpt lat="45.94234" lon="4.53686">
        <ele>286.39006678004</ele>
        <time>2022-03-09T12:32:58.683Z</time>
      </trkpt>
      <trkpt lat="45.94207" lon="4.53694">
        <ele>287.53308017532</ele>
        <time>2022-03-09T12:33:09.477Z</time>
      </trkpt>
      <trkpt lat="45.9412" lon="4.53706">
        <ele>288.28276670942</ele>
        <time>2022-03-09T12:33:32.510Z</time>
      </trkpt>
      <trkpt lat="45.94095" lon="4.53715">
        <ele>289.41982423622</ele>
        <time>2022-03-09T12:33:43.013Z</time>
      </trkpt>
      <trkpt lat="45.94085" lon="4.53722">
        <ele>290.68963740864</ele>
        <time>2022-03-09T12:33:51.162Z</time>
      </trkpt>
      <trkpt lat="45.9404" lon="4.5377">
        <ele>292.5428950581</ele>
        <time>2022-03-09T12:34:10.681Z</time>
      </trkpt>
      <trkpt lat="45.93996" lon="4.53805">
        <ele>294.46860602266</ele>
        <time>2022-03-09T12:34:29.490Z</time>
      </trkpt>
      <trkpt lat="45.93983" lon="4.53818">
        <ele>296.17483480762</ele>
        <time>2022-03-09T12:34:40.306Z</time>
      </trkpt>
      <trkpt lat="45.93971" lon="4.53834">
        <ele>297.8478967463</ele>
        <time>2022-03-09T12:34:50.870Z</time>
      </trkpt>
      <trkpt lat="45.93936" lon="4.53891">
        <ele>299.5320041887</ele>
        <time>2022-03-09T12:35:09.000Z</time>
      </trkpt>
      <trkpt lat="45.93899" lon="4.53947">
        <ele>301.27389143981</ele>
        <time>2022-03-09T12:35:27.556Z</time>
      </trkpt>
      <trkpt lat="45.93867" lon="4.53983">
        <ele>302.88371562312</ele>
        <time>2022-03-09T12:35:43.043Z</time>
      </trkpt>
      <trkpt lat="45.93811" lon="4.54049">
        <ele>304.41175599638</ele>
        <time>2022-03-09T12:36:04.839Z</time>
      </trkpt>
      <trkpt lat="45.93786" lon="4.54072">
        <ele>305.6692152711</ele>
        <time>2022-03-09T12:36:16.617Z</time>
      </trkpt>
      <trkpt lat="45.93743" lon="4.541">
        <ele>306.64056820662</ele>
        <time>2022-03-09T12:36:30.742Z</time>
      </trkpt>
      <trkpt lat="45.93698" lon="4.54118">
        <ele>307.40722078119</ele>
        <time>2022-03-09T12:36:44.092Z</time>
      </trkpt>
      <trkpt lat="45.93679" lon="4.54128">
        <ele>308.08076307072</ele>
        <time>2022-03-09T12:36:51.160Z</time>
      </trkpt>
      <trkpt lat="45.9364" lon="4.54162">
        <ele>308.64711052742</ele>
        <time>2022-03-09T12:37:03.657Z</time>
      </trkpt>
      <trkpt lat="45.93615" lon="4.54175">
        <ele>309.08012457851</ele>
        <time>2022-03-09T12:37:11.244Z</time>
      </trkpt>
      <trkpt lat="45.93574" lon="4.54183">
        <ele>309.2455168243</ele>
        <time>2022-03-09T12:37:21.674Z</time>
      </trkpt>
      <trkpt lat="45.93493" lon="4.54182">
        <ele>309.57645904823</ele>
        <time>2022-03-09T12:37:42.109Z</time>
      </trkpt>
      <trkpt lat="45.93465" lon="4.54187">
        <ele>309.70319913493</ele>
        <time>2022-03-09T12:37:49.254Z</time>
      </trkpt>
      <trkpt lat="45.93441" lon="4.54194">
        <ele>309.60812432896</ele>
        <time>2022-03-09T12:37:54.867Z</time>
      </trkpt>
      <trkpt lat="45.93418" lon="4.54199">
        <ele>309.36552924583</ele>
        <time>2022-03-09T12:37:58.759Z</time>
      </trkpt>
      <trkpt lat="45.93405" lon="4.54204">
        <ele>308.91238308813</ele>
        <time>2022-03-09T12:38:00.481Z</time>
      </trkpt>
      <trkpt lat="45.93379" lon="4.54216">
        <ele>308.37327910759</ele>
        <time>2022-03-09T12:38:04.549Z</time>
      </trkpt>
      <trkpt lat="45.93352" lon="4.54223">
        <ele>307.68293262529</ele>
        <time>2022-03-09T12:38:08.392Z</time>
      </trkpt>
      <trkpt lat="45.93344" lon="4.54229">
        <ele>306.65768403448</ele>
        <time>2022-03-09T12:38:09.337Z</time>
      </trkpt>
      <trkpt lat="45.93341" lon="4.54235">
        <ele>305.39696995755</ele>
        <time>2022-03-09T12:38:09.876Z</time>
      </trkpt>
      <trkpt lat="45.93335" lon="4.54267">
        <ele>303.69526735052</ele>
        <time>2022-03-09T12:38:12.291Z</time>
      </trkpt>
      <trkpt lat="45.93327" lon="4.54359">
        <ele>301.499794931</ele>
        <time>2022-03-09T12:38:20.514Z</time>
      </trkpt>
      <trkpt lat="45.93328" lon="4.54367">
        <ele>299.62178690871</ele>
        <time>2022-03-09T12:38:21.106Z</time>
      </trkpt>
      <trkpt lat="45.93333" lon="4.54371">
        <ele>297.66128908425</ele>
        <time>2022-03-09T12:38:21.706Z</time>
      </trkpt>
      <trkpt lat="45.93339" lon="4.54371">
        <ele>295.63229863448</ele>
        <time>2022-03-09T12:38:22.334Z</time>
      </trkpt>
      <trkpt lat="45.93373" lon="4.54363">
        <ele>293.51520999921</ele>
        <time>2022-03-09T12:38:25.778Z</time>
      </trkpt>
      <trkpt lat="45.93389" lon="4.54361">
        <ele>291.25233469658</ele>
        <time>2022-03-09T12:38:27.460Z</time>
      </trkpt>
      <trkpt lat="45.93405" lon="4.54361">
        <ele>288.93018183114</ele>
        <time>2022-03-09T12:38:29.137Z</time>
      </trkpt>
      <trkpt lat="45.93416" lon="4.54365">
        <ele>286.61332110967</ele>
        <time>2022-03-09T12:38:30.326Z</time>
      </trkpt>
      <trkpt lat="45.93485" lon="4.54399">
        <ele>284.02646905836</ele>
        <time>2022-03-09T12:38:39.496Z</time>
      </trkpt>
      <trkpt lat="45.93495" lon="4.5441">
        <ele>281.80164564448</ele>
        <time>2022-03-09T12:38:40.815Z</time>
      </trkpt>
      <trkpt lat="45.93498" lon="4.54422">
        <ele>279.59661906501</ele>
        <time>2022-03-09T12:38:41.744Z</time>
      </trkpt>
      <trkpt lat="45.93494" lon="4.54438">
        <ele>277.4332677639</ele>
        <time>2022-03-09T12:38:42.983Z</time>
      </trkpt>
      <trkpt lat="45.93483" lon="4.54453">
        <ele>275.3421501315</ele>
        <time>2022-03-09T12:38:44.572Z</time>
      </trkpt>
      <trkpt lat="45.93385" lon="4.54544">
        <ele>272.92196798465</ele>
        <time>2022-03-09T12:39:01.749Z</time>
      </trkpt>
      <trkpt lat="45.93407" lon="4.54548">
        <ele>270.81892620175</ele>
        <time>2022-03-09T12:39:04.072Z</time>
      </trkpt>
      <trkpt lat="45.9343" lon="4.5455">
        <ele>269.00800563586</ele>
        <time>2022-03-09T12:39:06.487Z</time>
      </trkpt>
      <trkpt lat="45.93449" lon="4.54557">
        <ele>267.39276308278</ele>
        <time>2022-03-09T12:39:08.542Z</time>
      </trkpt>
      <trkpt lat="45.93482" lon="4.5458">
        <ele>265.85444905708</ele>
        <time>2022-03-09T12:39:12.874Z</time>
      </trkpt>
      <trkpt lat="45.93509" lon="4.54606">
        <ele>264.58310981518</ele>
        <time>2022-03-09T12:39:16.816Z</time>
      </trkpt>
      <trkpt lat="45.93529" lon="4.5462">
        <ele>263.46751934523</ele>
        <time>2022-03-09T12:39:19.257Z</time>
      </trkpt>
      <trkpt lat="45.93534" lon="4.54621">
        <ele>262.50997731805</ele>
        <time>2022-03-09T12:39:19.786Z</time>
      </trkpt>
      <trkpt lat="45.9354" lon="4.5462">
        <ele>261.72126347834</ele>
        <time>2022-03-09T12:39:20.418Z</time>
      </trkpt>
      <trkpt lat="45.93546" lon="4.54613">
        <ele>261.09397732441</ele>
        <time>2022-03-09T12:39:21.228Z</time>
      </trkpt>
      <trkpt lat="45.93552" lon="4.54611">
        <ele>260.615066148</ele>
        <time>2022-03-09T12:39:21.873Z</time>
      </trkpt>
      <trkpt lat="45.93568" lon="4.54647">
        <ele>260.22635132513</ele>
        <time>2022-03-09T12:39:26.676Z</time>
      </trkpt>
      <trkpt lat="45.93573" lon="4.54664">
        <ele>260.05673362263</ele>
        <time>2022-03-09T12:39:28.748Z</time>
      </trkpt>
      <trkpt lat="45.93581" lon="4.54681">
        <ele>260.07117937335</ele>
        <time>2022-03-09T12:39:32.247Z</time>
      </trkpt>
      <trkpt lat="45.93582" lon="4.54688">
        <ele>260.20442505251</ele>
        <time>2022-03-09T12:39:33.846Z</time>
      </trkpt>
      <trkpt lat="45.93582" lon="4.54693">
        <ele>260.4568073306</ele>
        <time>2022-03-09T12:39:35.579Z</time>
      </trkpt>
      <trkpt lat="45.93531" lon="4.54754">
        <ele>260.83111866984</ele>
        <time>2022-03-09T12:39:52.566Z</time>
      </trkpt>
      <trkpt lat="45.93428" lon="4.54914">
        <ele>261.26661700441</ele>
        <time>2022-03-09T12:40:30.382Z</time>
      </trkpt>
      <trkpt lat="45.93402" lon="4.54952">
        <ele>261.9532583619</ele>
        <time>2022-03-09T12:40:41.224Z</time>
      </trkpt>
      <trkpt lat="45.93361" lon="4.54999">
        <ele>262.62335133763</ele>
        <time>2022-03-09T12:40:55.645Z</time>
      </trkpt>
      <trkpt lat="45.93322" lon="4.55039">
        <ele>263.5687942649</ele>
        <time>2022-03-09T12:41:09.845Z</time>
      </trkpt>
      <trkpt lat="45.9327" lon="4.55089">
        <ele>264.43121126974</ele>
        <time>2022-03-09T12:41:27.232Z</time>
      </trkpt>
      <trkpt lat="45.9325" lon="4.55118">
        <ele>265.39511981092</ele>
        <time>2022-03-09T12:41:37.240Z</time>
      </trkpt>
      <trkpt lat="45.93219" lon="4.55156">
        <ele>266.49390818076</ele>
        <time>2022-03-09T12:41:50.379Z</time>
      </trkpt>
      <trkpt lat="45.93217" lon="4.55161">
        <ele>267.7186513446</ele>
        <time>2022-03-09T12:41:54.136Z</time>
      </trkpt>
      <trkpt lat="45.93218" lon="4.55173">
        <ele>269.05055670346</ele>
        <time>2022-03-09T12:42:02.009Z</time>
      </trkpt>
      <trkpt lat="45.93229" lon="4.55196">
        <ele>270.49657080857</ele>
        <time>2022-03-09T12:42:11.828Z</time>
      </trkpt>
      <trkpt lat="45.93233" lon="4.55207">
        <ele>271.99876545882</ele>
        <time>2022-03-09T12:42:19.914Z</time>
      </trkpt>
      <trkpt lat="45.93187" lon="4.55275">
        <ele>273.58297499793</ele>
        <time>2022-03-09T12:42:40.452Z</time>
      </trkpt>
      <trkpt lat="45.93176" lon="4.55293">
        <ele>275.26069566184</ele>
        <time>2022-03-09T12:42:51.046Z</time>
      </trkpt>
      <trkpt lat="45.93169" lon="4.55308">
        <ele>276.96190562893</ele>
        <time>2022-03-09T12:43:02.813Z</time>
      </trkpt>
      <trkpt lat="45.9315" lon="4.55335">
        <ele>278.75056530756</ele>
        <time>2022-03-09T12:43:15.574Z</time>
      </trkpt>
      <trkpt lat="45.93143" lon="4.5535">
        <ele>280.5562036071</ele>
        <time>2022-03-09T12:43:27.341Z</time>
      </trkpt>
      <trkpt lat="45.9314" lon="4.55362">
        <ele>282.36585665899</ele>
        <time>2022-03-09T12:43:35.649Z</time>
      </trkpt>
      <trkpt lat="45.93135" lon="4.55407">
        <ele>284.4439358665</ele>
        <time>2022-03-09T12:43:50.635Z</time>
      </trkpt>
      <trkpt lat="45.9313" lon="4.5542">
        <ele>286.29302855664</ele>
        <time>2022-03-09T12:44:00.313Z</time>
      </trkpt>
      <trkpt lat="45.93109" lon="4.55458">
        <ele>288.2449764697</ele>
        <time>2022-03-09T12:44:15.421Z</time>
      </trkpt>
      <trkpt lat="45.93081" lon="4.55502">
        <ele>290.28657394973</ele>
        <time>2022-03-09T12:44:32.943Z</time>
      </trkpt>
      <trkpt lat="45.93075" lon="4.55515">
        <ele>292.07353147451</ele>
        <time>2022-03-09T12:44:43.107Z</time>
      </trkpt>
      <trkpt lat="45.93062" lon="4.55573">
        <ele>293.95604300495</ele>
        <time>2022-03-09T12:45:00.459Z</time>
      </trkpt>
      <trkpt lat="45.93062" lon="4.556">
        <ele>295.52073436088</ele>
        <time>2022-03-09T12:45:10.660Z</time>
      </trkpt>
      <trkpt lat="45.93058" lon="4.5565">
        <ele>296.92368484781</ele>
        <time>2022-03-09T12:45:24.091Z</time>
      </trkpt>
      <trkpt lat="45.93053" lon="4.55677">
        <ele>298.32582017624</ele>
        <time>2022-03-09T12:45:33.744Z</time>
      </trkpt>
      <trkpt lat="45.93017" lon="4.55776">
        <ele>299.80465805571</ele>
        <time>2022-03-09T12:45:56.596Z</time>
      </trkpt>
      <trkpt lat="45.92985" lon="4.55897">
        <ele>301.04228285559</ele>
        <time>2022-03-09T12:46:21.610Z</time>
      </trkpt>
      <trkpt lat="45.92963" lon="4.55929">
        <ele>301.86393339012</ele>
        <time>2022-03-09T12:46:31.615Z</time>
      </trkpt>
      <trkpt lat="45.92944" lon="4.5596">
        <ele>302.63214876968</ele>
        <time>2022-03-09T12:46:40.857Z</time>
      </trkpt>
      <trkpt lat="45.92925" lon="4.55998">
        <ele>303.2830269578</ele>
        <time>2022-03-09T12:46:50.534Z</time>
      </trkpt>
      <trkpt lat="45.92916" lon="4.5602">
        <ele>303.67879308811</ele>
        <time>2022-03-09T12:46:55.951Z</time>
      </trkpt>
      <trkpt lat="45.92914" lon="4.56031">
        <ele>303.94004499709</ele>
        <time>2022-03-09T12:46:58.705Z</time>
      </trkpt>
      <trkpt lat="45.92915" lon="4.56043">
        <ele>304.06241071156</ele>
        <time>2022-03-09T12:47:01.060Z</time>
      </trkpt>
      <trkpt lat="45.92923" lon="4.56082">
        <ele>304.03246864232</ele>
        <time>2022-03-09T12:47:07.818Z</time>
      </trkpt>
      <trkpt lat="45.92922" lon="4.56093">
        <ele>303.88349592813</ele>
        <time>2022-03-09T12:47:08.973Z</time>
      </trkpt>
      <trkpt lat="45.92918" lon="4.56106">
        <ele>303.59128550059</ele>
        <time>2022-03-09T12:47:10.294Z</time>
      </trkpt>
      <trkpt lat="45.92879" lon="4.5617">
        <ele>303.39024833003</ele>
        <time>2022-03-09T12:47:23.955Z</time>
      </trkpt>
      <trkpt lat="45.92844" lon="4.56254">
        <ele>303.06018375506</ele>
        <time>2022-03-09T12:47:39.350Z</time>
      </trkpt>
      <trkpt lat="45.92819" lon="4.563">
        <ele>302.60910431969</ele>
        <time>2022-03-09T12:47:46.083Z</time>
      </trkpt>
      <trkpt lat="45.9281" lon="4.56312">
        <ele>301.99340009282</ele>
        <time>2022-03-09T12:47:47.430Z</time>
      </trkpt>
      <trkpt lat="45.92728" lon="4.56395">
        <ele>301.02566280109</ele>
        <time>2022-03-09T12:48:04.382Z</time>
      </trkpt>
      <trkpt lat="45.92721" lon="4.56404">
        <ele>300.27115139138</ele>
        <time>2022-03-09T12:48:05.366Z</time>
      </trkpt>
      <trkpt lat="45.92717" lon="4.56416">
        <ele>299.45627561148</ele>
        <time>2022-03-09T12:48:06.336Z</time>
      </trkpt>
      <trkpt lat="45.92714" lon="4.56429">
        <ele>298.65869905179</ele>
        <time>2022-03-09T12:48:07.335Z</time>
      </trkpt>
      <trkpt lat="45.92715" lon="4.56442">
        <ele>297.91964359655</ele>
        <time>2022-03-09T12:48:08.288Z</time>
      </trkpt>
      <trkpt lat="45.92721" lon="4.56466">
        <ele>297.2504974407</ele>
        <time>2022-03-09T12:48:10.469Z</time>
      </trkpt>
      <trkpt lat="45.92726" lon="4.56483">
        <ele>296.64618162211</ele>
        <time>2022-03-09T12:48:11.917Z</time>
      </trkpt>
      <trkpt lat="45.92731" lon="4.56515">
        <ele>295.98512252404</ele>
        <time>2022-03-09T12:48:14.982Z</time>
      </trkpt>
      <trkpt lat="45.92733" lon="4.56535">
        <ele>295.51496495576</ele>
        <time>2022-03-09T12:48:16.785Z</time>
      </trkpt>
      <trkpt lat="45.92728" lon="4.56577">
        <ele>295.24079919537</ele>
        <time>2022-03-09T12:48:21.822Z</time>
      </trkpt>
      <trkpt lat="45.92733" lon="4.56616">
        <ele>295.18860591078</ele>
        <time>2022-03-09T12:48:28.332Z</time>
      </trkpt>
      <trkpt lat="45.9274" lon="4.56638">
        <ele>295.18153728059</ele>
        <time>2022-03-09T12:48:32.392Z</time>
      </trkpt>
      <trkpt lat="45.92744" lon="4.56665">
        <ele>295.15034264536</ele>
        <time>2022-03-09T12:48:36.942Z</time>
      </trkpt>
      <trkpt lat="45.92745" lon="4.56687">
        <ele>295.34976018161</ele>
        <time>2022-03-09T12:48:41.169Z</time>
      </trkpt>
      <trkpt lat="45.92742" lon="4.567">
        <ele>295.81152660704</ele>
        <time>2022-03-09T12:48:45.174Z</time>
      </trkpt>
      <trkpt lat="45.92735" lon="4.56716">
        <ele>296.52427305079</ele>
        <time>2022-03-09T12:48:50.915Z</time>
      </trkpt>
      <trkpt lat="45.92727" lon="4.56724">
        <ele>297.54001263326</ele>
        <time>2022-03-09T12:48:57.334Z</time>
      </trkpt>
      <trkpt lat="45.92703" lon="4.56739">
        <ele>298.99470025606</ele>
        <time>2022-03-09T12:49:08.868Z</time>
      </trkpt>
      <trkpt lat="45.92699" lon="4.56743">
        <ele>300.40575052869</ele>
        <time>2022-03-09T12:49:13.432Z</time>
      </trkpt>
      <trkpt lat="45.92682" lon="4.56771">
        <ele>302.19844982437</ele>
        <time>2022-03-09T12:49:26.002Z</time>
      </trkpt>
      <trkpt lat="45.92644" lon="4.5682">
        <ele>304.67363306534</ele>
        <time>2022-03-09T12:49:47.464Z</time>
      </trkpt>
      <trkpt lat="45.92627" lon="4.56849">
        <ele>306.9409583145</ele>
        <time>2022-03-09T12:50:02.116Z</time>
      </trkpt>
      <trkpt lat="45.92623" lon="4.56862">
        <ele>309.10853786188</ele>
        <time>2022-03-09T12:50:11.378Z</time>
      </trkpt>
      <trkpt lat="45.92624" lon="4.56864">
        <ele>311.30976306229</ele>
        <time>2022-03-09T12:50:12.982Z</time>
      </trkpt>
      <trkpt lat="45.92634" lon="4.56867">
        <ele>313.56860174056</ele>
        <time>2022-03-09T12:50:22.551Z</time>
      </trkpt>
      <trkpt lat="45.92643" lon="4.56875">
        <ele>315.97856163706</ele>
        <time>2022-03-09T12:50:32.462Z</time>
      </trkpt>
      <trkpt lat="45.92674" lon="4.56912">
        <ele>318.45778323857</ele>
        <time>2022-03-09T12:50:50.968Z</time>
      </trkpt>
      <trkpt lat="45.92722" lon="4.56987">
        <ele>321.29488586404</ele>
        <time>2022-03-09T12:51:18.145Z</time>
      </trkpt>
      <trkpt lat="45.9274" lon="4.57013">
        <ele>326.86498061384</ele>
        <time>2022-03-09T12:51:42.045Z</time>
      </trkpt>
      <trkpt lat="45.92793" lon="4.57111">
        <ele>329.85384789072</ele>
        <time>2022-03-09T12:52:12.747Z</time>
      </trkpt>
      <trkpt lat="45.92801" lon="4.57129">
        <ele>332.7388415191</ele>
        <time>2022-03-09T12:52:26.664Z</time>
      </trkpt>
      <trkpt lat="45.92813" lon="4.57169">
        <ele>335.7184849813</ele>
        <time>2022-03-09T12:52:45.493Z</time>
      </trkpt>
      <trkpt lat="45.92825" lon="4.57237">
        <ele>338.92078800763</ele>
        <time>2022-03-09T12:53:08.575Z</time>
      </trkpt>
      <trkpt lat="45.9285" lon="4.57302">
        <ele>342.27647917006</ele>
        <time>2022-03-09T12:53:32.895Z</time>
      </trkpt>
      <trkpt lat="45.92867" lon="4.57341">
        <ele>345.2466578003</ele>
        <time>2022-03-09T12:53:51.782Z</time>
      </trkpt>
      <trkpt lat="45.92889" lon="4.5738">
        <ele>348.23547240508</ele>
        <time>2022-03-09T12:54:11.119Z</time>
      </trkpt>
      <trkpt lat="45.92926" lon="4.57432">
        <ele>351.29901569244</ele>
        <time>2022-03-09T12:54:34.500Z</time>
      </trkpt>
      <trkpt lat="45.92939" lon="4.57483">
        <ele>354.37307718752</ele>
        <time>2022-03-09T12:54:54.691Z</time>
      </trkpt>
      <trkpt lat="45.92948" lon="4.575">
        <ele>357.21807080882</ele>
        <time>2022-03-09T12:55:08.610Z</time>
      </trkpt>
      <trkpt lat="45.9296" lon="4.57515">
        <ele>359.99135025107</ele>
        <time>2022-03-09T12:55:23.504Z</time>
      </trkpt>
      <trkpt lat="45.92969" lon="4.57531">
        <ele>362.70539410434</ele>
        <time>2022-03-09T12:55:36.909Z</time>
      </trkpt>
      <trkpt lat="45.92999" lon="4.57627">
        <ele>365.60565347178</ele>
        <time>2022-03-09T12:56:04.811Z</time>
      </trkpt>
      <trkpt lat="45.93044" lon="4.57698">
        <ele>368.19760020524</ele>
        <time>2022-03-09T12:56:29.978Z</time>
      </trkpt>
      <trkpt lat="45.93055" lon="4.57724">
        <ele>370.57535981261</ele>
        <time>2022-03-09T12:56:45.171Z</time>
      </trkpt>
      <trkpt lat="45.93065" lon="4.57729">
        <ele>372.77905802497</ele>
        <time>2022-03-09T12:56:55.088Z</time>
      </trkpt>
      <trkpt lat="45.93068" lon="4.57733">
        <ele>374.84209754386</ele>
        <time>2022-03-09T12:56:58.920Z</time>
      </trkpt>
      <trkpt lat="45.93083" lon="4.57775">
        <ele>376.84186668222</ele>
        <time>2022-03-09T12:57:13.935Z</time>
      </trkpt>
      <trkpt lat="45.93085" lon="4.57777">
        <ele>378.64510994083</ele>
        <time>2022-03-09T12:57:16.217Z</time>
      </trkpt>
      <trkpt lat="45.93103" lon="4.57776">
        <ele>380.34705233083</ele>
        <time>2022-03-09T12:57:27.012Z</time>
      </trkpt>
      <trkpt lat="45.93145" lon="4.57779">
        <ele>382.04536700142</ele>
        <time>2022-03-09T12:57:43.219Z</time>
      </trkpt>
      <trkpt lat="45.93183" lon="4.57777">
        <ele>383.56914686457</ele>
        <time>2022-03-09T12:57:57.808Z</time>
      </trkpt>
      <trkpt lat="45.93205" lon="4.57781">
        <ele>384.93297639635</ele>
        <time>2022-03-09T12:58:07.991Z</time>
      </trkpt>
      <trkpt lat="45.93258" lon="4.57797">
        <ele>386.34856927866</ele>
        <time>2022-03-09T12:58:25.282Z</time>
      </trkpt>
      <trkpt lat="45.93305" lon="4.57815">
        <ele>387.7833712403</ele>
        <time>2022-03-09T12:58:41.466Z</time>
      </trkpt>
      <trkpt lat="45.93323" lon="4.57824">
        <ele>388.83481807705</ele>
        <time>2022-03-09T12:58:49.842Z</time>
      </trkpt>
      <trkpt lat="45.93336" lon="4.57835">
        <ele>389.70896177951</ele>
        <time>2022-03-09T12:58:56.599Z</time>
      </trkpt>
      <trkpt lat="45.93343" lon="4.57828">
        <ele>390.27520305429</ele>
        <time>2022-03-09T12:59:00.655Z</time>
      </trkpt>
      <trkpt lat="45.93373" lon="4.57758">
        <ele>390.31137999191</ele>
        <time>2022-03-09T12:59:14.623Z</time>
      </trkpt>
      <trkpt lat="45.93387" lon="4.57732">
        <ele>390.54407430601</ele>
        <time>2022-03-09T12:59:20.747Z</time>
      </trkpt>
      <trkpt lat="45.93449" lon="4.57658">
        <ele>390.78956821384</ele>
        <time>2022-03-09T12:59:40.876Z</time>
      </trkpt>
      <trkpt lat="45.93471" lon="4.57636">
        <ele>390.9848301151</ele>
        <time>2022-03-09T12:59:47.848Z</time>
      </trkpt>
      <trkpt lat="45.93496" lon="4.57608">
        <ele>391.07389248836</ele>
        <time>2022-03-09T12:59:55.747Z</time>
      </trkpt>
      <trkpt lat="45.93523" lon="4.57579">
        <ele>391.07173894623</ele>
        <time>2022-03-09T13:00:03.923Z</time>
      </trkpt>
      <trkpt lat="45.93533" lon="4.57573">
        <ele>391.23969587665</ele>
        <time>2022-03-09T13:00:06.989Z</time>
      </trkpt>
      <trkpt lat="45.93542" lon="4.57571">
        <ele>391.46838817723</ele>
        <time>2022-03-09T13:00:09.861Z</time>
      </trkpt>
      <trkpt lat="45.93555" lon="4.5757">
        <ele>391.75490222729</ele>
        <time>2022-03-09T13:00:13.821Z</time>
      </trkpt>
      <trkpt lat="45.93573" lon="4.57574">
        <ele>392.11307527611</ele>
        <time>2022-03-09T13:00:19.216Z</time>
      </trkpt>
      <trkpt lat="45.93612" lon="4.57578">
        <ele>392.56231640396</ele>
        <time>2022-03-09T13:00:29.827Z</time>
      </trkpt>
      <trkpt lat="45.93638" lon="4.57576">
        <ele>393.07107290217</ele>
        <time>2022-03-09T13:00:37.528Z</time>
      </trkpt>
      <trkpt lat="45.93674" lon="4.57584">
        <ele>393.81410304067</ele>
        <time>2022-03-09T13:00:48.406Z</time>
      </trkpt>
      <trkpt lat="45.93691" lon="4.57583">
        <ele>394.5467723408</ele>
        <time>2022-03-09T13:00:55.229Z</time>
      </trkpt>
      <trkpt lat="45.93725" lon="4.57579">
        <ele>395.32394519871</ele>
        <time>2022-03-09T13:01:05.698Z</time>
      </trkpt>
      <trkpt lat="45.93792" lon="4.57551">
        <ele>396.24087176904</ele>
        <time>2022-03-09T13:01:24.959Z</time>
      </trkpt>
      <trkpt lat="45.93798" lon="4.57552">
        <ele>397.14324820057</ele>
        <time>2022-03-09T13:01:30.617Z</time>
      </trkpt>
      <trkpt lat="45.93816" lon="4.5756">
        <ele>398.21018314855</ele>
        <time>2022-03-09T13:01:38.980Z</time>
      </trkpt>
      <trkpt lat="45.93841" lon="4.57566">
        <ele>399.45999590511</ele>
        <time>2022-03-09T13:01:49.694Z</time>
      </trkpt>
      <trkpt lat="45.93859" lon="4.57568">
        <ele>400.63576797015</ele>
        <time>2022-03-09T13:01:58.203Z</time>
      </trkpt>
      <trkpt lat="45.93886" lon="4.57563">
        <ele>401.77912177389</ele>
        <time>2022-03-09T13:02:08.947Z</time>
      </trkpt>
      <trkpt lat="45.93895" lon="4.57563">
        <ele>402.91453835524</ele>
        <time>2022-03-09T13:02:16.574Z</time>
      </trkpt>
      <trkpt lat="45.93913" lon="4.57571">
        <ele>404.21099585492</ele>
        <time>2022-03-09T13:02:25.699Z</time>
      </trkpt>
      <trkpt lat="45.93923" lon="4.57572">
        <ele>405.35965875112</ele>
        <time>2022-03-09T13:02:33.078Z</time>
      </trkpt>
      <trkpt lat="45.93949" lon="4.57568">
        <ele>406.4330790673</ele>
        <time>2022-03-09T13:02:43.254Z</time>
      </trkpt>
      <trkpt lat="45.93974" lon="4.57569">
        <ele>407.45004961964</ele>
        <time>2022-03-09T13:02:52.932Z</time>
      </trkpt>
      <trkpt lat="45.93982" lon="4.57568">
        <ele>408.40436585291</ele>
        <time>2022-03-09T13:02:59.143Z</time>
      </trkpt>
      <trkpt lat="45.93987" lon="4.5757">
        <ele>409.32204871403</ele>
        <time>2022-03-09T13:03:04.004Z</time>
      </trkpt>
      <trkpt lat="45.93989" lon="4.57573">
        <ele>410.18444345362</ele>
        <time>2022-03-09T13:03:06.711Z</time>
      </trkpt>
      <trkpt lat="45.93997" lon="4.57624">
        <ele>411.47512752614</ele>
        <time>2022-03-09T13:03:19.794Z</time>
      </trkpt>
      <trkpt lat="45.94" lon="4.57629">
        <ele>412.17777351408</ele>
        <time>2022-03-09T13:03:24.096Z</time>
      </trkpt>
      <trkpt lat="45.94011" lon="4.57634">
        <ele>412.78523531403</ele>
        <time>2022-03-09T13:03:29.081Z</time>
      </trkpt>
      <trkpt lat="45.94033" lon="4.57639">
        <ele>413.16753330497</ele>
        <time>2022-03-09T13:03:35.498Z</time>
      </trkpt>
      <trkpt lat="45.94039" lon="4.57643">
        <ele>413.49651151527</ele>
        <time>2022-03-09T13:03:38.302Z</time>
      </trkpt>
      <trkpt lat="45.94058" lon="4.57641">
        <ele>413.59801215785</ele>
        <time>2022-03-09T13:03:43.165Z</time>
      </trkpt>
      <trkpt lat="45.94072" lon="4.57645">
        <ele>413.65098456532</ele>
        <time>2022-03-09T13:03:46.754Z</time>
      </trkpt>
      <trkpt lat="45.94089" lon="4.57652">
        <ele>413.59348773449</ele>
        <time>2022-03-09T13:03:50.844Z</time>
      </trkpt>
      <trkpt lat="45.94106" lon="4.57662">
        <ele>413.52406599315</ele>
        <time>2022-03-09T13:03:55.060Z</time>
      </trkpt>
      <trkpt lat="45.94117" lon="4.57666">
        <ele>413.3400442023</ele>
        <time>2022-03-09T13:03:56.823Z</time>
      </trkpt>
      <trkpt lat="45.94124" lon="4.57667">
        <ele>413.05028748758</ele>
        <time>2022-03-09T13:03:57.660Z</time>
      </trkpt>
      <trkpt lat="45.94134" lon="4.57664">
        <ele>412.69865843429</ele>
        <time>2022-03-09T13:03:58.958Z</time>
      </trkpt>
      <trkpt lat="45.94143" lon="4.57657">
        <ele>412.21876026558</ele>
        <time>2022-03-09T13:04:00.113Z</time>
      </trkpt>
      <trkpt lat="45.94153" lon="4.57646">
        <ele>411.61641548236</ele>
        <time>2022-03-09T13:04:01.523Z</time>
      </trkpt>
      <trkpt lat="45.94182" lon="4.57625">
        <ele>410.954006744</ele>
        <time>2022-03-09T13:04:06.323Z</time>
      </trkpt>
      <trkpt lat="45.94198" lon="4.57611">
        <ele>410.2785539702</ele>
        <time>2022-03-09T13:04:08.663Z</time>
      </trkpt>
      <trkpt lat="45.94205" lon="4.57603">
        <ele>409.63174111303</ele>
        <time>2022-03-09T13:04:09.600Z</time>
      </trkpt>
      <trkpt lat="45.94208" lon="4.57592">
        <ele>408.94903002129</ele>
        <time>2022-03-09T13:04:10.461Z</time>
      </trkpt>
      <trkpt lat="45.94204" lon="4.57576">
        <ele>408.24145480957</ele>
        <time>2022-03-09T13:04:11.658Z</time>
      </trkpt>
      <trkpt lat="45.94193" lon="4.57564">
        <ele>407.4801180054</ele>
        <time>2022-03-09T13:04:13.110Z</time>
      </trkpt>
      <trkpt lat="45.94184" lon="4.57537">
        <ele>406.87582305297</ele>
        <time>2022-03-09T13:04:15.907Z</time>
      </trkpt>
      <trkpt lat="45.94178" lon="4.57525">
        <ele>406.27520906557</ele>
        <time>2022-03-09T13:04:16.959Z</time>
      </trkpt>
      <trkpt lat="45.94151" lon="4.57493">
        <ele>405.38676415316</ele>
        <time>2022-03-09T13:04:21.847Z</time>
      </trkpt>
      <trkpt lat="45.94139" lon="4.57471">
        <ele>404.80338745939</ele>
        <time>2022-03-09T13:04:24.431Z</time>
      </trkpt>
      <trkpt lat="45.94134" lon="4.57456">
        <ele>404.29374439296</ele>
        <time>2022-03-09T13:04:25.771Z</time>
      </trkpt>
      <trkpt lat="45.94134" lon="4.57445">
        <ele>403.96273243325</ele>
        <time>2022-03-09T13:04:26.664Z</time>
      </trkpt>
      <trkpt lat="45.94142" lon="4.57423">
        <ele>403.77879525995</ele>
        <time>2022-03-09T13:04:29.543Z</time>
      </trkpt>
      <trkpt lat="45.94155" lon="4.57395">
        <ele>403.71101668862</ele>
        <time>2022-03-09T13:04:34.987Z</time>
      </trkpt>
      <trkpt lat="45.94162" lon="4.57386">
        <ele>403.71901871041</ele>
        <time>2022-03-09T13:04:37.285Z</time>
      </trkpt>
      <trkpt lat="45.94173" lon="4.57379">
        <ele>403.87634011101</ele>
        <time>2022-03-09T13:04:40.604Z</time>
      </trkpt>
      <trkpt lat="45.94223" lon="4.57361">
        <ele>404.24857532412</ele>
        <time>2022-03-09T13:04:54.007Z</time>
      </trkpt>
      <trkpt lat="45.94311" lon="4.57357">
        <ele>404.3509421346</ele>
        <time>2022-03-09T13:05:15.617Z</time>
      </trkpt>
      <trkpt lat="45.94321" lon="4.57358">
        <ele>404.72164771716</ele>
        <time>2022-03-09T13:05:19.298Z</time>
      </trkpt>
      <trkpt lat="45.94344" lon="4.57374">
        <ele>405.39353787485</ele>
        <time>2022-03-09T13:05:27.471Z</time>
      </trkpt>
      <trkpt lat="45.94373" lon="4.57382">
        <ele>405.99589788652</ele>
        <time>2022-03-09T13:05:36.290Z</time>
      </trkpt>
      <trkpt lat="45.94384" lon="4.57383">
        <ele>406.51210490763</ele>
        <time>2022-03-09T13:05:40.875Z</time>
      </trkpt>
      <trkpt lat="45.94426" lon="4.5738">
        <ele>407.02408447605</ele>
        <time>2022-03-09T13:05:52.368Z</time>
      </trkpt>
      <trkpt lat="45.94437" lon="4.57374">
        <ele>407.66053990634</ele>
        <time>2022-03-09T13:05:57.501Z</time>
      </trkpt>
      <trkpt lat="45.9445" lon="4.57364">
        <ele>408.41981835952</ele>
        <time>2022-03-09T13:06:03.823Z</time>
      </trkpt>
      <trkpt lat="45.9447" lon="4.57343">
        <ele>409.33043791148</ele>
        <time>2022-03-09T13:06:12.891Z</time>
      </trkpt>
      <trkpt lat="45.94479" lon="4.57329">
        <ele>410.34439914947</ele>
        <time>2022-03-09T13:06:19.702Z</time>
      </trkpt>
      <trkpt lat="45.94489" lon="4.57306">
        <ele>411.56890846486</ele>
        <time>2022-03-09T13:06:28.579Z</time>
      </trkpt>
      <trkpt lat="45.94488" lon="4.57302">
        <ele>412.54549384099</ele>
        <time>2022-03-09T13:06:31.347Z</time>
      </trkpt>
      <trkpt lat="45.94474" lon="4.57272">
        <ele>413.48560920357</ele>
        <time>2022-03-09T13:06:40.630Z</time>
      </trkpt>
      <trkpt lat="45.94467" lon="4.57252">
        <ele>414.54018510994</ele>
        <time>2022-03-09T13:06:48.110Z</time>
      </trkpt>
      <trkpt lat="45.94456" lon="4.57233">
        <ele>415.58635603307</ele>
        <time>2022-03-09T13:06:55.968Z</time>
      </trkpt>
      <trkpt lat="45.94445" lon="4.57204">
        <ele>416.78272765801</ele>
        <time>2022-03-09T13:07:05.857Z</time>
      </trkpt>
      <trkpt lat="45.94435" lon="4.57189">
        <ele>417.89552764485</ele>
        <time>2022-03-09T13:07:13.311Z</time>
      </trkpt>
      <trkpt lat="45.94432" lon="4.57178">
        <ele>419.05185747425</ele>
        <time>2022-03-09T13:07:21.007Z</time>
      </trkpt>
      <trkpt lat="45.94433" lon="4.57166">
        <ele>420.24166756021</ele>
        <time>2022-03-09T13:07:28.879Z</time>
      </trkpt>
      <trkpt lat="45.94444" lon="4.57105">
        <ele>421.45692507305</ele>
        <time>2022-03-09T13:07:43.143Z</time>
      </trkpt>
      <trkpt lat="45.94449" lon="4.57073">
        <ele>422.56522325077</ele>
        <time>2022-03-09T13:07:52.739Z</time>
      </trkpt>
      <trkpt lat="45.9445" lon="4.57066">
        <ele>423.71598707689</ele>
        <time>2022-03-09T13:07:57.393Z</time>
      </trkpt>
      <trkpt lat="45.94455" lon="4.57063">
        <ele>424.88385209619</ele>
        <time>2022-03-09T13:08:02.467Z</time>
      </trkpt>
      <trkpt lat="45.94462" lon="4.57066">
        <ele>426.07328002146</ele>
        <time>2022-03-09T13:08:09.309Z</time>
      </trkpt>
      <trkpt lat="45.94483" lon="4.57085">
        <ele>427.34039514368</ele>
        <time>2022-03-09T13:08:19.918Z</time>
      </trkpt>
      <trkpt lat="45.94527" lon="4.57136">
        <ele>428.72772119374</ele>
        <time>2022-03-09T13:08:37.622Z</time>
      </trkpt>
      <trkpt lat="45.94566" lon="4.57179">
        <ele>430.16310485604</ele>
        <time>2022-03-09T13:08:53.915Z</time>
      </trkpt>
      <trkpt lat="45.94569" lon="4.57181">
        <ele>431.28072855775</ele>
        <time>2022-03-09T13:08:57.012Z</time>
      </trkpt>
      <trkpt lat="45.94571" lon="4.57178">
        <ele>432.34471014632</ele>
        <time>2022-03-09T13:08:59.719Z</time>
      </trkpt>
      <trkpt lat="45.94565" lon="4.57177">
        <ele>433.35357816768</ele>
        <time>2022-03-09T13:09:05.376Z</time>
      </trkpt>
      <trkpt lat="45.94562" lon="4.57175">
        <ele>434.34341228792</ele>
        <time>2022-03-09T13:09:08.473Z</time>
      </trkpt>
      <trkpt lat="45.94563" lon="4.5717">
        <ele>435.30362040189</ele>
        <time>2022-03-09T13:09:11.862Z</time>
      </trkpt>
      <trkpt lat="45.94565" lon="4.57177">
        <ele>436.28554209352</ele>
        <time>2022-03-09T13:09:16.791Z</time>
      </trkpt>
      <trkpt lat="45.94567" lon="4.57178">
        <ele>437.2163244344</ele>
        <time>2022-03-09T13:09:18.774Z</time>
      </trkpt>
      <trkpt lat="45.9458" lon="4.57169">
        <ele>438.13889363437</ele>
        <time>2022-03-09T13:09:25.516Z</time>
      </trkpt>
      <trkpt lat="45.94607" lon="4.57163">
        <ele>439.07100767567</ele>
        <time>2022-03-09T13:09:35.166Z</time>
      </trkpt>
      <trkpt lat="45.94651" lon="4.57146">
        <ele>439.84505874632</ele>
        <time>2022-03-09T13:09:48.269Z</time>
      </trkpt>
      <trkpt lat="45.94659" lon="4.57145">
        <ele>440.66728080336</ele>
        <time>2022-03-09T13:09:53.461Z</time>
      </trkpt>
      <trkpt lat="45.94683" lon="4.57148">
        <ele>441.53028878714</ele>
        <time>2022-03-09T13:10:02.168Z</time>
      </trkpt>
      <trkpt lat="45.94693" lon="4.57154">
        <ele>442.3218758434</ele>
        <time>2022-03-09T13:10:07.587Z</time>
      </trkpt>
      <trkpt lat="45.94702" lon="4.57151">
        <ele>443.03293981413</ele>
        <time>2022-03-09T13:10:12.352Z</time>
      </trkpt>
      <trkpt lat="45.94719" lon="4.57148">
        <ele>443.71427621074</ele>
        <time>2022-03-09T13:10:18.895Z</time>
      </trkpt>
      <trkpt lat="45.94734" lon="4.57148">
        <ele>444.36897754033</ele>
        <time>2022-03-09T13:10:24.964Z</time>
      </trkpt>
      <trkpt lat="45.94751" lon="4.57151">
        <ele>445.05256649797</ele>
        <time>2022-03-09T13:10:31.520Z</time>
      </trkpt>
      <trkpt lat="45.94759" lon="4.57149">
        <ele>445.67387554099</ele>
        <time>2022-03-09T13:10:35.693Z</time>
      </trkpt>
      <trkpt lat="45.94768" lon="4.57149">
        <ele>446.27694141345</ele>
        <time>2022-03-09T13:10:39.993Z</time>
      </trkpt>
      <trkpt lat="45.94776" lon="4.57145">
        <ele>446.84117851517</ele>
        <time>2022-03-09T13:10:44.029Z</time>
      </trkpt>
      <trkpt lat="45.94779" lon="4.5714">
        <ele>447.34360400359</ele>
        <time>2022-03-09T13:10:47.222Z</time>
      </trkpt>
      <trkpt lat="45.9478" lon="4.57111">
        <ele>447.69853055069</ele>
        <time>2022-03-09T13:10:53.065Z</time>
      </trkpt>
      <trkpt lat="45.94783" lon="4.57091">
        <ele>448.08247706989</ele>
        <time>2022-03-09T13:10:57.654Z</time>
      </trkpt>
      <trkpt lat="45.94785" lon="4.57091">
        <ele>448.48028431128</ele>
        <time>2022-03-09T13:10:59.528Z</time>
      </trkpt>
      <trkpt lat="45.94792" lon="4.57164">
        <ele>449.05034316686</ele>
        <time>2022-03-09T13:11:13.382Z</time>
      </trkpt>
      <trkpt lat="45.94795" lon="4.57172">
        <ele>449.3540522252</ele>
        <time>2022-03-09T13:11:16.032Z</time>
      </trkpt>
      <trkpt lat="45.948" lon="4.57172">
        <ele>449.58530388686</ele>
        <time>2022-03-09T13:11:18.104Z</time>
      </trkpt>
      <trkpt lat="45.94833" lon="4.57158">
        <ele>449.81995855527</ele>
        <time>2022-03-09T13:11:27.015Z</time>
      </trkpt>
      <trkpt lat="45.94871" lon="4.57147">
        <ele>449.91733686186</ele>
        <time>2022-03-09T13:11:36.650Z</time>
      </trkpt>
      <trkpt lat="45.94903" lon="4.57133">
        <ele>449.83379155231</ele>
        <time>2022-03-09T13:11:44.473Z</time>
      </trkpt>
      <trkpt lat="45.94935" lon="4.57111">
        <ele>449.67410585473</ele>
        <time>2022-03-09T13:11:52.530Z</time>
      </trkpt>
      <trkpt lat="45.94934" lon="4.57117">
        <ele>449.52709038511</ele>
        <time>2022-03-09T13:11:53.076Z</time>
      </trkpt>
      <trkpt lat="45.94921" lon="4.57136">
        <ele>449.29251599972</ele>
        <time>2022-03-09T13:11:56.088Z</time>
      </trkpt>
      <trkpt lat="45.94893" lon="4.57154">
        <ele>449.11118093018</ele>
        <time>2022-03-09T13:12:02.917Z</time>
      </trkpt>
      <trkpt lat="45.94885" lon="4.57162">
        <ele>448.73054129857</ele>
        <time>2022-03-09T13:12:04.100Z</time>
      </trkpt>
      <trkpt lat="45.94883" lon="4.57166">
        <ele>448.22613539312</ele>
        <time>2022-03-09T13:12:04.459Z</time>
      </trkpt>
      <trkpt lat="45.94882" lon="4.57175">
        <ele>447.61774229183</ele>
        <time>2022-03-09T13:12:05.123Z</time>
      </trkpt>
      <trkpt lat="45.94882" lon="4.57216">
        <ele>446.91324859606</ele>
        <time>2022-03-09T13:12:09.135Z</time>
      </trkpt>
      <trkpt lat="45.94883" lon="4.57228">
        <ele>446.08975752071</ele>
        <time>2022-03-09T13:12:10.015Z</time>
      </trkpt>
      <trkpt lat="45.94887" lon="4.57233">
        <ele>445.15514406985</ele>
        <time>2022-03-09T13:12:10.571Z</time>
      </trkpt>
      <trkpt lat="45.94903" lon="4.57238">
        <ele>444.08744606664</ele>
        <time>2022-03-09T13:12:12.160Z</time>
      </trkpt>
      <trkpt lat="45.94962" lon="4.57262">
        <ele>442.65469542267</ele>
        <time>2022-03-09T13:12:20.921Z</time>
      </trkpt>
      <trkpt lat="45.94988" lon="4.57279">
        <ele>441.24350213902</ele>
        <time>2022-03-09T13:12:24.075Z</time>
      </trkpt>
      <trkpt lat="45.95015" lon="4.573">
        <ele>440.07267298122</ele>
        <time>2022-03-09T13:12:27.834Z</time>
      </trkpt>
      <trkpt lat="45.95024" lon="4.57304">
        <ele>438.61557173005</ele>
        <time>2022-03-09T13:12:28.821Z</time>
      </trkpt>
      <trkpt lat="45.95054" lon="4.57315">
        <ele>436.96809661551</ele>
        <time>2022-03-09T13:12:32.130Z</time>
      </trkpt>
      <trkpt lat="45.95112" lon="4.57348">
        <ele>435.46941890244</ele>
        <time>2022-03-09T13:12:40.977Z</time>
      </trkpt>
      <trkpt lat="45.9514" lon="4.5736">
        <ele>433.76964458547</ele>
        <time>2022-03-09T13:12:43.974Z</time>
      </trkpt>
      <trkpt lat="45.95176" lon="4.5737">
        <ele>431.96583861726</ele>
        <time>2022-03-09T13:12:48.031Z</time>
      </trkpt>
      <trkpt lat="45.95212" lon="4.57384">
        <ele>430.11139177878</ele>
        <time>2022-03-09T13:12:52.138Z</time>
      </trkpt>
      <trkpt lat="45.95237" lon="4.57397">
        <ele>428.07415503011</ele>
        <time>2022-03-09T13:12:54.923Z</time>
      </trkpt>
      <trkpt lat="45.95243" lon="4.57397">
        <ele>426.17103735329</ele>
        <time>2022-03-09T13:12:55.552Z</time>
      </trkpt>
      <trkpt lat="45.95251" lon="4.57391">
        <ele>424.25222309267</ele>
        <time>2022-03-09T13:12:56.497Z</time>
      </trkpt>
      <trkpt lat="45.95255" lon="4.57386">
        <ele>422.36976842645</ele>
        <time>2022-03-09T13:12:57.052Z</time>
      </trkpt>
      <trkpt lat="45.95262" lon="4.57357">
        <ele>420.38926013164</ele>
        <time>2022-03-09T13:12:59.289Z</time>
      </trkpt>
      <trkpt lat="45.95284" lon="4.57333">
        <ele>418.38609858947</ele>
        <time>2022-03-09T13:13:02.182Z</time>
      </trkpt>
      <trkpt lat="45.95308" lon="4.57281">
        <ele>416.06457798508</ele>
        <time>2022-03-09T13:13:06.809Z</time>
      </trkpt>
      <trkpt lat="45.95308" lon="4.57276">
        <ele>414.449647349</ele>
        <time>2022-03-09T13:13:07.173Z</time>
      </trkpt>
      <trkpt lat="45.95304" lon="4.57273">
        <ele>413.00271435303</ele>
        <time>2022-03-09T13:13:07.646Z</time>
      </trkpt>
      <trkpt lat="45.95289" lon="4.57276">
        <ele>411.81876919035</ele>
        <time>2022-03-09T13:13:09.233Z</time>
      </trkpt>
      <trkpt lat="45.95292" lon="4.57277">
        <ele>410.59159314748</ele>
        <time>2022-03-09T13:13:09.556Z</time>
      </trkpt>
      <trkpt lat="45.95309" lon="4.57273">
        <ele>409.29639716793</ele>
        <time>2022-03-09T13:13:11.361Z</time>
      </trkpt>
      <trkpt lat="45.95312" lon="4.57266">
        <ele>408.27760182581</ele>
        <time>2022-03-09T13:13:11.960Z</time>
      </trkpt>
      <trkpt lat="45.9531" lon="4.57257">
        <ele>407.40829383783</ele>
        <time>2022-03-09T13:13:12.648Z</time>
      </trkpt>
      <trkpt lat="45.95306" lon="4.57248">
        <ele>406.68159737857</ele>
        <time>2022-03-09T13:13:13.426Z</time>
      </trkpt>
      <trkpt lat="45.95299" lon="4.57244">
        <ele>406.11800067892</ele>
        <time>2022-03-09T13:13:14.215Z</time>
      </trkpt>
      <trkpt lat="45.95292" lon="4.57242">
        <ele>405.70708029095</ele>
        <time>2022-03-09T13:13:14.951Z</time>
      </trkpt>
      <trkpt lat="45.95281" lon="4.57242">
        <ele>405.40050310234</ele>
        <time>2022-03-09T13:13:16.447Z</time>
      </trkpt>
      <trkpt lat="45.95233" lon="4.57249">
        <ele>405.3769145395</ele>
        <time>2022-03-09T13:13:28.075Z</time>
      </trkpt>
      <trkpt lat="45.952" lon="4.57249">
        <ele>405.52437035844</ele>
        <time>2022-03-09T13:13:36.431Z</time>
      </trkpt>
      <trkpt lat="45.95166" lon="4.57236">
        <ele>405.37112324523</ele>
        <time>2022-03-09T13:13:44.440Z</time>
      </trkpt>
      <trkpt lat="45.95119" lon="4.5721">
        <ele>405.34039598347</ele>
        <time>2022-03-09T13:13:56.555Z</time>
      </trkpt>
      <trkpt lat="45.95112" lon="4.57202">
        <ele>405.39000210238</ele>
        <time>2022-03-09T13:13:58.842Z</time>
      </trkpt>
      <trkpt lat="45.95105" lon="4.57173">
        <ele>405.37262298144</ele>
        <time>2022-03-09T13:14:03.961Z</time>
      </trkpt>
      <trkpt lat="45.95101" lon="4.57145">
        <ele>405.5364446884</ele>
        <time>2022-03-09T13:14:09.181Z</time>
      </trkpt>
      <trkpt lat="45.95099" lon="4.5709">
        <ele>405.64633965237</ele>
        <time>2022-03-09T13:14:18.731Z</time>
      </trkpt>
      <trkpt lat="45.95101" lon="4.57075">
        <ele>405.90593451715</ele>
        <time>2022-03-09T13:14:22.054Z</time>
      </trkpt>
      <trkpt lat="45.9511" lon="4.57047">
        <ele>406.22219919794</ele>
        <time>2022-03-09T13:14:28.075Z</time>
      </trkpt>
      <trkpt lat="45.95124" lon="4.57015">
        <ele>406.352151437</ele>
        <time>2022-03-09T13:14:34.761Z</time>
      </trkpt>
      <trkpt lat="45.95127" lon="4.57003">
        <ele>406.41951917375</ele>
        <time>2022-03-09T13:14:37.075Z</time>
      </trkpt>
      <trkpt lat="45.95133" lon="4.56966">
        <ele>406.31457448702</ele>
        <time>2022-03-09T13:14:43.122Z</time>
      </trkpt>
      <trkpt lat="45.95135" lon="4.56945">
        <ele>406.0848088193</ele>
        <time>2022-03-09T13:14:45.430Z</time>
      </trkpt>
      <trkpt lat="45.95133" lon="4.56934">
        <ele>405.81135253329</ele>
        <time>2022-03-09T13:14:46.433Z</time>
      </trkpt>
      <trkpt lat="45.95124" lon="4.56904">
        <ele>405.49544552999</ele>
        <time>2022-03-09T13:14:50.066Z</time>
      </trkpt>
      <trkpt lat="45.95078" lon="4.56806">
        <ele>404.86149112812</ele>
        <time>2022-03-09T13:15:04.333Z</time>
      </trkpt>
      <trkpt lat="45.95078" lon="4.568">
        <ele>404.18091201567</ele>
        <time>2022-03-09T13:15:04.770Z</time>
      </trkpt>
      <trkpt lat="45.95082" lon="4.56782">
        <ele>403.2938643436</ele>
        <time>2022-03-09T13:15:06.147Z</time>
      </trkpt>
      <trkpt lat="45.95078" lon="4.56767">
        <ele>402.29657593236</ele>
        <time>2022-03-09T13:15:07.317Z</time>
      </trkpt>
      <trkpt lat="45.95071" lon="4.56757">
        <ele>401.21452181758</ele>
        <time>2022-03-09T13:15:08.351Z</time>
      </trkpt>
      <trkpt lat="45.95064" lon="4.5675">
        <ele>400.01658762959</ele>
        <time>2022-03-09T13:15:09.244Z</time>
      </trkpt>
      <trkpt lat="45.9505" lon="4.56743">
        <ele>398.65613405892</ele>
        <time>2022-03-09T13:15:10.797Z</time>
      </trkpt>
      <trkpt lat="45.9505" lon="4.56741">
        <ele>397.31998875834</ele>
        <time>2022-03-09T13:15:10.943Z</time>
      </trkpt>
      <trkpt lat="45.95054" lon="4.56739">
        <ele>395.91821762626</ele>
        <time>2022-03-09T13:15:11.387Z</time>
      </trkpt>
      <trkpt lat="45.95084" lon="4.56738">
        <ele>394.49345884376</ele>
        <time>2022-03-09T13:15:14.757Z</time>
      </trkpt>
      <trkpt lat="45.95098" lon="4.56741">
        <ele>392.94432349722</ele>
        <time>2022-03-09T13:15:16.241Z</time>
      </trkpt>
      <trkpt lat="45.95106" lon="4.56746">
        <ele>391.27860981874</ele>
        <time>2022-03-09T13:15:17.155Z</time>
      </trkpt>
      <trkpt lat="45.95118" lon="4.56754">
        <ele>389.55523043973</ele>
        <time>2022-03-09T13:15:18.540Z</time>
      </trkpt>
      <trkpt lat="45.9513" lon="4.56764">
        <ele>387.73448148673</ele>
        <time>2022-03-09T13:15:19.994Z</time>
      </trkpt>
      <trkpt lat="45.95141" lon="4.56778">
        <ele>385.88706593643</ele>
        <time>2022-03-09T13:15:21.533Z</time>
      </trkpt>
      <trkpt lat="45.95163" lon="4.5682">
        <ele>383.9443543037</ele>
        <time>2022-03-09T13:15:25.443Z</time>
      </trkpt>
      <trkpt lat="45.95178" lon="4.56842">
        <ele>381.82919021155</ele>
        <time>2022-03-09T13:15:27.688Z</time>
      </trkpt>
      <trkpt lat="45.95188" lon="4.56859">
        <ele>379.89739439443</ele>
        <time>2022-03-09T13:15:29.310Z</time>
      </trkpt>
      <trkpt lat="45.95208" lon="4.56913">
        <ele>378.12152799606</ele>
        <time>2022-03-09T13:15:34.344Z</time>
      </trkpt>
      <trkpt lat="45.9524" lon="4.5698">
        <ele>375.93193835131</ele>
        <time>2022-03-09T13:15:41.226Z</time>
      </trkpt>
      <trkpt lat="45.9525" lon="4.5701">
        <ele>374.39393564901</ele>
        <time>2022-03-09T13:15:43.449Z</time>
      </trkpt>
      <trkpt lat="45.95261" lon="4.57052">
        <ele>372.91418561215</ele>
        <time>2022-03-09T13:15:46.956Z</time>
      </trkpt>
      <trkpt lat="45.95269" lon="4.57068">
        <ele>371.64878697396</ele>
        <time>2022-03-09T13:15:48.391Z</time>
      </trkpt>
      <trkpt lat="45.9528" lon="4.57075">
        <ele>370.53388856025</ele>
        <time>2022-03-09T13:15:49.652Z</time>
      </trkpt>
      <trkpt lat="45.95305" lon="4.57083">
        <ele>369.53325965327</ele>
        <time>2022-03-09T13:15:52.760Z</time>
      </trkpt>
      <trkpt lat="45.95332" lon="4.57097">
        <ele>368.78504154916</ele>
        <time>2022-03-09T13:15:56.740Z</time>
      </trkpt>
      <trkpt lat="45.95358" lon="4.57115">
        <ele>368.24927478301</ele>
        <time>2022-03-09T13:16:01.099Z</time>
      </trkpt>
      <trkpt lat="45.95372" lon="4.57128">
        <ele>367.99678390765</ele>
        <time>2022-03-09T13:16:03.723Z</time>
      </trkpt>
      <trkpt lat="45.95386" lon="4.5715">
        <ele>368.07328189863</ele>
        <time>2022-03-09T13:16:08.935Z</time>
      </trkpt>
      <trkpt lat="45.95404" lon="4.57191">
        <ele>368.4534289656</ele>
        <time>2022-03-09T13:16:18.064Z</time>
      </trkpt>
      <trkpt lat="45.95435" lon="4.57251">
        <ele>368.91834828475</ele>
        <time>2022-03-09T13:16:31.811Z</time>
      </trkpt>
      <trkpt lat="45.9545" lon="4.57276">
        <ele>369.68768882321</ele>
        <time>2022-03-09T13:16:39.855Z</time>
      </trkpt>
      <trkpt lat="45.95467" lon="4.57299">
        <ele>370.64726096145</ele>
        <time>2022-03-09T13:16:48.946Z</time>
      </trkpt>
      <trkpt lat="45.95475" lon="4.57305">
        <ele>371.81508420883</ele>
        <time>2022-03-09T13:16:56.936Z</time>
      </trkpt>
      <trkpt lat="45.95492" lon="4.57312">
        <ele>373.17399893755</ele>
        <time>2022-03-09T13:17:06.047Z</time>
      </trkpt>
      <trkpt lat="45.95536" lon="4.57322">
        <ele>374.76951768243</ele>
        <time>2022-03-09T13:17:22.146Z</time>
      </trkpt>
      <trkpt lat="45.95545" lon="4.57326">
        <ele>376.57822117756</ele>
        <time>2022-03-09T13:17:30.969Z</time>
      </trkpt>
      <trkpt lat="45.95547" lon="4.5733">
        <ele>378.54252027946</ele>
        <time>2022-03-09T13:17:34.177Z</time>
      </trkpt>
      <trkpt lat="45.95536" lon="4.57366">
        <ele>380.76570985164</ele>
        <time>2022-03-09T13:17:48.783Z</time>
      </trkpt>
      <trkpt lat="45.95417" lon="4.57571">
        <ele>384.87075985594</ele>
        <time>2022-03-09T13:18:45.319Z</time>
      </trkpt>
      <trkpt lat="45.95408" lon="4.57569">
        <ele>387.18152544051</ele>
        <time>2022-03-09T13:18:53.849Z</time>
      </trkpt>
      <trkpt lat="45.95385" lon="4.5757">
        <ele>389.53143982727</ele>
        <time>2022-03-09T13:19:08.687Z</time>
      </trkpt>
      <trkpt lat="45.95339" lon="4.57569">
        <ele>392.01165515685</ele>
        <time>2022-03-09T13:19:28.735Z</time>
      </trkpt>
      <trkpt lat="45.95328" lon="4.57563">
        <ele>394.52715017972</ele>
        <time>2022-03-09T13:19:39.754Z</time>
      </trkpt>
      <trkpt lat="45.95317" lon="4.57552">
        <ele>396.97028851726</ele>
        <time>2022-03-09T13:19:52.303Z</time>
      </trkpt>
      <trkpt lat="45.95312" lon="4.57549">
        <ele>399.33451979032</ele>
        <time>2022-03-09T13:19:57.377Z</time>
      </trkpt>
      <trkpt lat="45.95307" lon="4.57549">
        <ele>401.63798761407</ele>
        <time>2022-03-09T13:20:02.060Z</time>
      </trkpt>
      <trkpt lat="45.95294" lon="4.57558">
        <ele>404.0918378181</ele>
        <time>2022-03-09T13:20:15.574Z</time>
      </trkpt>
      <trkpt lat="45.95288" lon="4.57558">
        <ele>406.27748875492</ele>
        <time>2022-03-09T13:20:21.193Z</time>
      </trkpt>
      <trkpt lat="45.9528" lon="4.57556">
        <ele>408.38006602525</ele>
        <time>2022-03-09T13:20:28.799Z</time>
      </trkpt>
      <trkpt lat="45.95278" lon="4.57558">
        <ele>410.35637971978</ele>
        <time>2022-03-09T13:20:31.081Z</time>
      </trkpt>
      <trkpt lat="45.95278" lon="4.57563">
        <ele>412.27138416698</ele>
        <time>2022-03-09T13:20:34.337Z</time>
      </trkpt>
      <trkpt lat="45.95281" lon="4.57572">
        <ele>414.13475570524</ele>
        <time>2022-03-09T13:20:40.836Z</time>
      </trkpt>
      <trkpt lat="45.95297" lon="4.57585">
        <ele>415.77957873428</ele>
        <time>2022-03-09T13:20:51.364Z</time>
      </trkpt>
      <trkpt lat="45.95307" lon="4.57588">
        <ele>417.34183685631</ele>
        <time>2022-03-09T13:21:00.932Z</time>
      </trkpt>
      <trkpt lat="45.95341" lon="4.57591">
        <ele>418.51012093993</ele>
        <time>2022-03-09T13:21:12.993Z</time>
      </trkpt>
      <trkpt lat="45.95361" lon="4.57591">
        <ele>420.04897221196</ele>
        <time>2022-03-09T13:21:23.306Z</time>
      </trkpt>
      <trkpt lat="45.9537" lon="4.57593">
        <ele>421.79835357296</ele>
        <time>2022-03-09T13:21:31.836Z</time>
      </trkpt>
      <trkpt lat="45.95381" lon="4.57605">
        <ele>423.75877569585</ele>
        <time>2022-03-09T13:21:44.767Z</time>
      </trkpt>
      <trkpt lat="45.95388" lon="4.57616">
        <ele>425.79169833351</ele>
        <time>2022-03-09T13:21:54.478Z</time>
      </trkpt>
      <trkpt lat="45.95395" lon="4.57642">
        <ele>428.06442388543</ele>
        <time>2022-03-09T13:22:09.191Z</time>
      </trkpt>
      <trkpt lat="45.95412" lon="4.57727">
        <ele>430.21746984413</ele>
        <time>2022-03-09T13:22:31.174Z</time>
      </trkpt>
      <trkpt lat="45.95425" lon="4.57776">
        <ele>432.43555692636</ele>
        <time>2022-03-09T13:22:47.839Z</time>
      </trkpt>
      <trkpt lat="45.95424" lon="4.57794">
        <ele>434.80794873689</ele>
        <time>2022-03-09T13:22:59.597Z</time>
      </trkpt>
      <trkpt lat="45.95415" lon="4.57833">
        <ele>437.50048131929</ele>
        <time>2022-03-09T13:23:16.681Z</time>
      </trkpt>
      <trkpt lat="45.95411" lon="4.57836">
        <ele>440.01257121164</ele>
        <time>2022-03-09T13:23:20.906Z</time>
      </trkpt>
      <trkpt lat="45.95408" lon="4.57834">
        <ele>442.60674213444</ele>
        <time>2022-03-09T13:23:24.003Z</time>
      </trkpt>
      <trkpt lat="45.954" lon="4.578">
        <ele>445.25693011995</ele>
        <time>2022-03-09T13:23:40.775Z</time>
      </trkpt>
      <trkpt lat="45.9539" lon="4.57783">
        <ele>448.03006296378</ele>
        <time>2022-03-09T13:23:55.276Z</time>
      </trkpt>
      <trkpt lat="45.9536" lon="4.57757">
        <ele>451.20381215271</ele>
        <time>2022-03-09T13:24:15.540Z</time>
      </trkpt>
      <trkpt lat="45.95345" lon="4.57748">
        <ele>454.33656431806</ele>
        <time>2022-03-09T13:24:30.763Z</time>
      </trkpt>
      <trkpt lat="45.9533" lon="4.57737">
        <ele>457.57801300491</ele>
        <time>2022-03-09T13:24:46.534Z</time>
      </trkpt>
      <trkpt lat="45.95322" lon="4.57735">
        <ele>460.77226753444</ele>
        <time>2022-03-09T13:24:54.139Z</time>
      </trkpt>
      <trkpt lat="45.95316" lon="4.57735">
        <ele>463.95504821484</ele>
        <time>2022-03-09T13:24:59.759Z</time>
      </trkpt>
      <trkpt lat="45.95176" lon="4.57842">
        <ele>467.97385449777</ele>
        <time>2022-03-09T13:25:49.900Z</time>
      </trkpt>
      <trkpt lat="45.95169" lon="4.57852">
        <ele>471.06745052244</ele>
        <time>2022-03-09T13:25:59.141Z</time>
      </trkpt>
      <trkpt lat="45.95161" lon="4.57866">
        <ele>474.17897526261</ele>
        <time>2022-03-09T13:26:10.942Z</time>
      </trkpt>
      <trkpt lat="45.95149" lon="4.57902">
        <ele>477.28586287187</ele>
        <time>2022-03-09T13:26:30.776Z</time>
      </trkpt>
      <trkpt lat="45.95139" lon="4.57923">
        <ele>480.39754732576</ele>
        <time>2022-03-09T13:26:47.352Z</time>
      </trkpt>
      <trkpt lat="45.95111" lon="4.57964">
        <ele>483.5457500105</ele>
        <time>2022-03-09T13:27:08.263Z</time>
      </trkpt>
      <trkpt lat="45.95062" lon="4.58041">
        <ele>486.79497011476</ele>
        <time>2022-03-09T13:27:38.058Z</time>
      </trkpt>
      <trkpt lat="45.95037" lon="4.58077">
        <ele>489.9770603694</ele>
        <time>2022-03-09T13:27:58.405Z</time>
      </trkpt>
      <trkpt lat="45.95032" lon="4.58091">
        <ele>492.88272612841</ele>
        <time>2022-03-09T13:28:08.654Z</time>
      </trkpt>
      <trkpt lat="45.95029" lon="4.58108">
        <ele>495.75948702181</ele>
        <time>2022-03-09T13:28:20.076Z</time>
      </trkpt>
      <trkpt lat="45.95024" lon="4.58153">
        <ele>498.73240465074</ele>
        <time>2022-03-09T13:28:38.950Z</time>
      </trkpt>
      <trkpt lat="45.95019" lon="4.5817">
        <ele>501.33794408036</ele>
        <time>2022-03-09T13:28:50.971Z</time>
      </trkpt>
      <trkpt lat="45.95015" lon="4.58177">
        <ele>503.74590436846</ele>
        <time>2022-03-09T13:28:56.871Z</time>
      </trkpt>
      <trkpt lat="45.9501" lon="4.58179">
        <ele>506.02223917255</ele>
        <time>2022-03-09T13:29:01.732Z</time>
      </trkpt>
      <trkpt lat="45.94987" lon="4.58183">
        <ele>508.1261422509</ele>
        <time>2022-03-09T13:29:15.160Z</time>
      </trkpt>
      <trkpt lat="45.94972" lon="4.58188">
        <ele>510.21821740108</ele>
        <time>2022-03-09T13:29:29.582Z</time>
      </trkpt>
      <trkpt lat="45.9494" lon="4.58193">
        <ele>512.24043465898</ele>
        <time>2022-03-09T13:29:44.504Z</time>
      </trkpt>
      <trkpt lat="45.94926" lon="4.58186">
        <ele>514.10120338799</ele>
        <time>2022-03-09T13:29:56.965Z</time>
      </trkpt>
      <trkpt lat="45.94913" lon="4.58181">
        <ele>515.9887290117</ele>
        <time>2022-03-09T13:30:09.569Z</time>
      </trkpt>
      <trkpt lat="45.949" lon="4.58181">
        <ele>517.78952650809</ele>
        <time>2022-03-09T13:30:21.746Z</time>
      </trkpt>
      <trkpt lat="45.94893" lon="4.58184">
        <ele>519.51486001679</ele>
        <time>2022-03-09T13:30:28.587Z</time>
      </trkpt>
      <trkpt lat="45.9489" lon="4.58195">
        <ele>521.12874366242</ele>
        <time>2022-03-09T13:30:36.282Z</time>
      </trkpt>
      <trkpt lat="45.94886" lon="4.58228">
        <ele>522.99455577001</ele>
        <time>2022-03-09T13:30:48.602Z</time>
      </trkpt>
      <trkpt lat="45.94887" lon="4.5824">
        <ele>524.41622691398</ele>
        <time>2022-03-09T13:30:56.473Z</time>
      </trkpt>
      <trkpt lat="45.9489" lon="4.58254">
        <ele>525.72475933848</ele>
        <time>2022-03-09T13:31:05.374Z</time>
      </trkpt>
      <trkpt lat="45.94887" lon="4.58275">
        <ele>526.95893078272</ele>
        <time>2022-03-09T13:31:13.436Z</time>
      </trkpt>
      <trkpt lat="45.94897" lon="4.58329">
        <ele>527.98378656186</ele>
        <time>2022-03-09T13:31:25.877Z</time>
      </trkpt>
      <trkpt lat="45.94901" lon="4.58377">
        <ele>529.00124056452</ele>
        <time>2022-03-09T13:31:37.171Z</time>
      </trkpt>
      <trkpt lat="45.94906" lon="4.58392">
        <ele>530.0305458059</ele>
        <time>2022-03-09T13:31:43.767Z</time>
      </trkpt>
      <trkpt lat="45.94915" lon="4.584">
        <ele>531.10929011022</ele>
        <time>2022-03-09T13:31:50.579Z</time>
      </trkpt>
      <trkpt lat="45.94921" lon="4.58401">
        <ele>532.18396944495</ele>
        <time>2022-03-09T13:31:56.236Z</time>
      </trkpt>
      <trkpt lat="45.94928" lon="4.58399">
        <ele>533.27402356714</ele>
        <time>2022-03-09T13:32:02.921Z</time>
      </trkpt>
      <trkpt lat="45.94938" lon="4.584">
        <ele>534.39697732243</ele>
        <time>2022-03-09T13:32:10.091Z</time>
      </trkpt>
      <trkpt lat="45.94959" lon="4.58403">
        <ele>535.58307776527</ele>
        <time>2022-03-09T13:32:19.431Z</time>
      </trkpt>
      <trkpt lat="45.94969" lon="4.58406">
        <ele>536.82003077755</ele>
        <time>2022-03-09T13:32:27.551Z</time>
      </trkpt>
      <trkpt lat="45.95014" lon="4.58435">
        <ele>538.28323485277</ele>
        <time>2022-03-09T13:32:43.994Z</time>
      </trkpt>
      <trkpt lat="45.95079" lon="4.58459">
        <ele>539.78563351642</ele>
        <time>2022-03-09T13:33:04.494Z</time>
      </trkpt>
      <trkpt lat="45.95102" lon="4.58476">
        <ele>541.21668117027</ele>
        <time>2022-03-09T13:33:15.873Z</time>
      </trkpt>
      <trkpt lat="45.95118" lon="4.58499">
        <ele>542.72452703583</ele>
        <time>2022-03-09T13:33:26.654Z</time>
      </trkpt>
      <trkpt lat="45.95147" lon="4.58528">
        <ele>544.2618449296</ele>
        <time>2022-03-09T13:33:40.918Z</time>
      </trkpt>
      <trkpt lat="45.95175" lon="4.58561">
        <ele>545.83964668667</ele>
        <time>2022-03-09T13:33:55.550Z</time>
      </trkpt>
      <trkpt lat="45.95196" lon="4.58594">
        <ele>547.47705260063</ele>
        <time>2022-03-09T13:34:08.990Z</time>
      </trkpt>
      <trkpt lat="45.9523" lon="4.58668">
        <ele>549.193232769</ele>
        <time>2022-03-09T13:34:29.088Z</time>
      </trkpt>
      <trkpt lat="45.95295" lon="4.58786">
        <ele>550.94268090841</ele>
        <time>2022-03-09T13:34:59.100Z</time>
      </trkpt>
      <trkpt lat="45.95321" lon="4.58839">
        <ele>552.75651570981</ele>
        <time>2022-03-09T13:35:16.439Z</time>
      </trkpt>
      <trkpt lat="45.95352" lon="4.5891">
        <ele>554.94156101906</ele>
        <time>2022-03-09T13:35:37.996Z</time>
      </trkpt>
      <trkpt lat="45.95366" lon="4.58935">
        <ele>556.94378807875</ele>
        <time>2022-03-09T13:35:50.805Z</time>
      </trkpt>
      <trkpt lat="45.95383" lon="4.58951">
        <ele>558.99901765138</ele>
        <time>2022-03-09T13:36:03.782Z</time>
      </trkpt>
      <trkpt lat="45.95419" lon="4.58973">
        <ele>561.27462501492</ele>
        <time>2022-03-09T13:36:21.330Z</time>
      </trkpt>
      <trkpt lat="45.95449" lon="4.58994">
        <ele>563.52458135417</ele>
        <time>2022-03-09T13:36:37.324Z</time>
      </trkpt>
      <trkpt lat="45.9548" lon="4.59023">
        <ele>565.8077392626</ele>
        <time>2022-03-09T13:36:54.335Z</time>
      </trkpt>
      <trkpt lat="45.95497" lon="4.59035">
        <ele>568.00269802955</ele>
        <time>2022-03-09T13:37:08.487Z</time>
      </trkpt>
      <trkpt lat="45.95517" lon="4.59045">
        <ele>570.17003227315</ele>
        <time>2022-03-09T13:37:22.173Z</time>
      </trkpt>
      <trkpt lat="45.95534" lon="4.59051">
        <ele>572.22603397011</ele>
        <time>2022-03-09T13:37:35.492Z</time>
      </trkpt>
      <trkpt lat="45.95557" lon="4.59055">
        <ele>574.28823720339</ele>
        <time>2022-03-09T13:37:48.707Z</time>
      </trkpt>
      <trkpt lat="45.95577" lon="4.59054">
        <ele>576.36357675821</ele>
        <time>2022-03-09T13:38:01.818Z</time>
      </trkpt>
      <trkpt lat="45.95602" lon="4.59056">
        <ele>578.55597825158</ele>
        <time>2022-03-09T13:38:15.920Z</time>
      </trkpt>
      <trkpt lat="45.95626" lon="4.59054">
        <ele>580.67147058996</ele>
        <time>2022-03-09T13:38:29.512Z</time>
      </trkpt>
      <trkpt lat="45.9568" lon="4.59038">
        <ele>582.64582918756</ele>
        <time>2022-03-09T13:38:49.435Z</time>
      </trkpt>
      <trkpt lat="45.95722" lon="4.5902">
        <ele>584.70630748849</ele>
        <time>2022-03-09T13:39:07.687Z</time>
      </trkpt>
      <trkpt lat="45.95803" lon="4.59006">
        <ele>586.96962968444</ele>
        <time>2022-03-09T13:39:34.247Z</time>
      </trkpt>
      <trkpt lat="45.95813" lon="4.59002">
        <ele>588.92837256977</ele>
        <time>2022-03-09T13:39:43.969Z</time>
      </trkpt>
      <trkpt lat="45.95853" lon="4.58983">
        <ele>590.7484573541</ele>
        <time>2022-03-09T13:40:00.899Z</time>
      </trkpt>
      <trkpt lat="45.95908" lon="4.58945">
        <ele>592.94237908203</ele>
        <time>2022-03-09T13:40:22.992Z</time>
      </trkpt>
      <trkpt lat="45.95947" lon="4.58928">
        <ele>595.04390357558</ele>
        <time>2022-03-09T13:40:40.475Z</time>
      </trkpt>
      <trkpt lat="45.95969" lon="4.58915">
        <ele>596.906840835</ele>
        <time>2022-03-09T13:40:52.875Z</time>
      </trkpt>
      <trkpt lat="45.95988" lon="4.58908">
        <ele>598.59389287757</ele>
        <time>2022-03-09T13:41:03.775Z</time>
      </trkpt>
      <trkpt lat="45.96001" lon="4.58907">
        <ele>600.16697912553</ele>
        <time>2022-03-09T13:41:14.091Z</time>
      </trkpt>
      <trkpt lat="45.96022" lon="4.58912">
        <ele>601.69055897524</ele>
        <time>2022-03-09T13:41:24.617Z</time>
      </trkpt>
      <trkpt lat="45.96073" lon="4.58944">
        <ele>603.08638233005</ele>
        <time>2022-03-09T13:41:42.159Z</time>
      </trkpt>
      <trkpt lat="45.96099" lon="4.58957">
        <ele>604.25392206388</ele>
        <time>2022-03-09T13:41:53.091Z</time>
      </trkpt>
      <trkpt lat="45.96133" lon="4.58964">
        <ele>605.4243037679</ele>
        <time>2022-03-09T13:42:05.216Z</time>
      </trkpt>
      <trkpt lat="45.96152" lon="4.58965">
        <ele>606.40733813861</ele>
        <time>2022-03-09T13:42:13.380Z</time>
      </trkpt>
      <trkpt lat="45.96174" lon="4.58962">
        <ele>607.18549868753</ele>
        <time>2022-03-09T13:42:21.301Z</time>
      </trkpt>
      <trkpt lat="45.96203" lon="4.58954">
        <ele>607.89938081936</ele>
        <time>2022-03-09T13:42:30.511Z</time>
      </trkpt>
      <trkpt lat="45.96231" lon="4.58941">
        <ele>608.46239199829</ele>
        <time>2022-03-09T13:42:39.174Z</time>
      </trkpt>
      <trkpt lat="45.96256" lon="4.58922">
        <ele>608.91933704772</ele>
        <time>2022-03-09T13:42:47.233Z</time>
      </trkpt>
      <trkpt lat="45.96267" lon="4.58916">
        <ele>609.24778094261</ele>
        <time>2022-03-09T13:42:51.071Z</time>
      </trkpt>
      <trkpt lat="45.963" lon="4.58901">
        <ele>609.51551665171</ele>
        <time>2022-03-09T13:43:00.116Z</time>
      </trkpt>
      <trkpt lat="45.96321" lon="4.58892">
        <ele>609.60107494304</ele>
        <time>2022-03-09T13:43:05.635Z</time>
      </trkpt>
      <trkpt lat="45.96355" lon="4.58884">
        <ele>609.54615675275</ele>
        <time>2022-03-09T13:43:13.801Z</time>
      </trkpt>
      <trkpt lat="45.96443" lon="4.58874">
        <ele>609.47017249213</ele>
        <time>2022-03-09T13:43:34.958Z</time>
      </trkpt>
      <trkpt lat="45.965" lon="4.58879">
        <ele>609.29944378108</ele>
        <time>2022-03-09T13:43:48.218Z</time>
      </trkpt>
      <trkpt lat="45.96572" lon="4.5888">
        <ele>608.83554738715</ele>
        <time>2022-03-09T13:44:04.132Z</time>
      </trkpt>
      <trkpt lat="45.96609" lon="4.58875">
        <ele>607.94626983418</ele>
        <time>2022-03-09T13:44:09.409Z</time>
      </trkpt>
      <trkpt lat="45.96628" lon="4.58869">
        <ele>607.40893347323</ele>
        <time>2022-03-09T13:44:12.061Z</time>
      </trkpt>
      <trkpt lat="45.96638" lon="4.58865">
        <ele>606.84627074996</ele>
        <time>2022-03-09T13:44:13.161Z</time>
      </trkpt>
      <trkpt lat="45.96705" lon="4.5882">
        <ele>606.13115851043</ele>
        <time>2022-03-09T13:44:25.657Z</time>
      </trkpt>
      <trkpt lat="45.96742" lon="4.58797">
        <ele>605.42786403417</ele>
        <time>2022-03-09T13:44:31.828Z</time>
      </trkpt>
      <trkpt lat="45.96806" lon="4.58765">
        <ele>604.40886531741</ele>
        <time>2022-03-09T13:44:42.513Z</time>
      </trkpt>
      <trkpt lat="45.96889" lon="4.58717">
        <ele>603.82262052926</ele>
        <time>2022-03-09T13:45:02.253Z</time>
      </trkpt>
      <trkpt lat="45.9694" lon="4.58678">
        <ele>603.2450671168</ele>
        <time>2022-03-09T13:45:11.971Z</time>
      </trkpt>
      <trkpt lat="45.96952" lon="4.58671">
        <ele>602.52397724445</ele>
        <time>2022-03-09T13:45:13.327Z</time>
      </trkpt>
      <trkpt lat="45.96983" lon="4.58636">
        <ele>601.84245000633</ele>
        <time>2022-03-09T13:45:19.371Z</time>
      </trkpt>
      <trkpt lat="45.97009" lon="4.58612">
        <ele>601.0814897688</ele>
        <time>2022-03-09T13:45:23.723Z</time>
      </trkpt>
      <trkpt lat="45.97039" lon="4.58573">
        <ele>600.28543816017</ele>
        <time>2022-03-09T13:45:29.750Z</time>
      </trkpt>
      <trkpt lat="45.97055" lon="4.5854">
        <ele>599.5915879666</ele>
        <time>2022-03-09T13:45:33.682Z</time>
      </trkpt>
      <trkpt lat="45.97061" lon="4.5852">
        <ele>598.78001791585</ele>
        <time>2022-03-09T13:45:35.295Z</time>
      </trkpt>
      <trkpt lat="45.97101" lon="4.5848">
        <ele>597.88609595551</ele>
        <time>2022-03-09T13:45:42.673Z</time>
      </trkpt>
      <trkpt lat="45.97123" lon="4.58463">
        <ele>596.87690746013</ele>
        <time>2022-03-09T13:45:45.665Z</time>
      </trkpt>
      <trkpt lat="45.97133" lon="4.5845">
        <ele>595.78345141886</ele>
        <time>2022-03-09T13:45:47.077Z</time>
      </trkpt>
      <trkpt lat="45.97152" lon="4.58436">
        <ele>594.57707158066</ele>
        <time>2022-03-09T13:45:49.297Z</time>
      </trkpt>
      <trkpt lat="45.97186" lon="4.58426">
        <ele>593.18745838173</ele>
        <time>2022-03-09T13:45:53.471Z</time>
      </trkpt>
      <trkpt lat="45.97234" lon="4.58409">
        <ele>591.8705737919</ele>
        <time>2022-03-09T13:46:00.282Z</time>
      </trkpt>
      <trkpt lat="45.97286" lon="4.58402">
        <ele>590.21442270462</ele>
        <time>2022-03-09T13:46:07.103Z</time>
      </trkpt>
      <trkpt lat="45.97318" lon="4.58388">
        <ele>588.60732933703</ele>
        <time>2022-03-09T13:46:10.841Z</time>
      </trkpt>
      <trkpt lat="45.97337" lon="4.58366">
        <ele>586.88265351493</ele>
        <time>2022-03-09T13:46:13.396Z</time>
      </trkpt>
      <trkpt lat="45.97347" lon="4.58363">
        <ele>585.18149356916</ele>
        <time>2022-03-09T13:46:14.466Z</time>
      </trkpt>
      <trkpt lat="45.97391" lon="4.58364">
        <ele>583.37591637167</ele>
        <time>2022-03-09T13:46:19.709Z</time>
      </trkpt>
      <trkpt lat="45.97407" lon="4.58369">
        <ele>581.49342789636</ele>
        <time>2022-03-09T13:46:21.425Z</time>
      </trkpt>
      <trkpt lat="45.97421" lon="4.58377">
        <ele>579.54469740403</ele>
        <time>2022-03-09T13:46:23.003Z</time>
      </trkpt>
      <trkpt lat="45.97436" lon="4.58382">
        <ele>577.54137504119</ele>
        <time>2022-03-09T13:46:24.617Z</time>
      </trkpt>
      <trkpt lat="45.97476" lon="4.58392">
        <ele>575.36147932125</ele>
        <time>2022-03-09T13:46:28.939Z</time>
      </trkpt>
      <trkpt lat="45.97496" lon="4.58394">
        <ele>573.2385771618</ele>
        <time>2022-03-09T13:46:31.039Z</time>
      </trkpt>
      <trkpt lat="45.97517" lon="4.58402">
        <ele>571.12108822432</ele>
        <time>2022-03-09T13:46:33.316Z</time>
      </trkpt>
      <trkpt lat="45.97545" lon="4.58406">
        <ele>569.09722901992</ele>
        <time>2022-03-09T13:46:36.264Z</time>
      </trkpt>
      <trkpt lat="45.9758" lon="4.58401">
        <ele>567.15941080409</ele>
        <time>2022-03-09T13:46:39.965Z</time>
      </trkpt>
      <trkpt lat="45.97608" lon="4.58401">
        <ele>565.18855260224</ele>
        <time>2022-03-09T13:46:42.899Z</time>
      </trkpt>
      <trkpt lat="45.97636" lon="4.58398">
        <ele>563.27065620252</ele>
        <time>2022-03-09T13:46:45.841Z</time>
      </trkpt>
      <trkpt lat="45.97704" lon="4.58394">
        <ele>561.14482582321</ele>
        <time>2022-03-09T13:46:54.772Z</time>
      </trkpt>
      <trkpt lat="45.97713" lon="4.58387">
        <ele>559.36432687982</ele>
        <time>2022-03-09T13:46:55.844Z</time>
      </trkpt>
      <trkpt lat="45.97722" lon="4.58377">
        <ele>557.67044117149</ele>
        <time>2022-03-09T13:46:57.035Z</time>
      </trkpt>
      <trkpt lat="45.97742" lon="4.5835">
        <ele>555.97583469154</ele>
        <time>2022-03-09T13:46:59.769Z</time>
      </trkpt>
      <trkpt lat="45.97755" lon="4.58339">
        <ele>554.49465471823</ele>
        <time>2022-03-09T13:47:01.349Z</time>
      </trkpt>
      <trkpt lat="45.97765" lon="4.58335">
        <ele>553.17865707638</ele>
        <time>2022-03-09T13:47:02.436Z</time>
      </trkpt>
      <trkpt lat="45.9777" lon="4.58335">
        <ele>552.04649255235</ele>
        <time>2022-03-09T13:47:02.960Z</time>
      </trkpt>
      <trkpt lat="45.97785" lon="4.58338">
        <ele>551.03981756735</ele>
        <time>2022-03-09T13:47:04.416Z</time>
      </trkpt>
      <trkpt lat="45.97805" lon="4.58345">
        <ele>550.2270698743</ele>
        <time>2022-03-09T13:47:06.905Z</time>
      </trkpt>
      <trkpt lat="45.97814" lon="4.58346">
        <ele>549.57717186686</ele>
        <time>2022-03-09T13:47:07.850Z</time>
      </trkpt>
      <trkpt lat="45.97822" lon="4.58342">
        <ele>549.07003446369</ele>
        <time>2022-03-09T13:47:08.707Z</time>
      </trkpt>
      <trkpt lat="45.97826" lon="4.58337">
        <ele>548.69740978675</ele>
        <time>2022-03-09T13:47:09.263Z</time>
      </trkpt>
      <trkpt lat="45.97834" lon="4.58319">
        <ele>548.47523769461</ele>
        <time>2022-03-09T13:47:11.606Z</time>
      </trkpt>
      <trkpt lat="45.97847" lon="4.58302">
        <ele>548.43621183872</ele>
        <time>2022-03-09T13:47:15.732Z</time>
      </trkpt>
      <trkpt lat="45.97874" lon="4.58279">
        <ele>548.49424751567</ele>
        <time>2022-03-09T13:47:23.482Z</time>
      </trkpt>
      <trkpt lat="45.97896" lon="4.58263">
        <ele>548.68850775653</ele>
        <time>2022-03-09T13:47:29.934Z</time>
      </trkpt>
      <trkpt lat="45.97923" lon="4.58248">
        <ele>549.15560977514</ele>
        <time>2022-03-09T13:47:38.181Z</time>
      </trkpt>
      <trkpt lat="45.97939" lon="4.58244">
        <ele>549.70542527357</ele>
        <time>2022-03-09T13:47:43.897Z</time>
      </trkpt>
      <trkpt lat="45.97995" lon="4.58242">
        <ele>550.58438525864</ele>
        <time>2022-03-09T13:47:59.783Z</time>
      </trkpt>
      <trkpt lat="45.98017" lon="4.58239">
        <ele>551.41687060413</ele>
        <time>2022-03-09T13:48:07.977Z</time>
      </trkpt>
      <trkpt lat="45.98036" lon="4.58235">
        <ele>552.33693807972</ele>
        <time>2022-03-09T13:48:16.021Z</time>
      </trkpt>
      <trkpt lat="45.98038" lon="4.58233">
        <ele>553.29610596764</ele>
        <time>2022-03-09T13:48:18.302Z</time>
      </trkpt>
      <trkpt lat="45.98039" lon="4.58229">
        <ele>554.36405075855</ele>
        <time>2022-03-09T13:48:21.069Z</time>
      </trkpt>
      <trkpt lat="45.98038" lon="4.58224">
        <ele>555.53524780292</ele>
        <time>2022-03-09T13:48:24.455Z</time>
      </trkpt>
      <trkpt lat="45.98036" lon="4.58221">
        <ele>556.80233796901</ele>
        <time>2022-03-09T13:48:27.161Z</time>
      </trkpt>
      <trkpt lat="45.98028" lon="4.58219">
        <ele>558.15754453266</ele>
        <time>2022-03-09T13:48:34.766Z</time>
      </trkpt>
      <trkpt lat="45.98017" lon="4.58219">
        <ele>559.59718625742</ele>
        <time>2022-03-09T13:48:44.702Z</time>
      </trkpt>
      <trkpt lat="45.98012" lon="4.58215">
        <ele>561.18655922992</ele>
        <time>2022-03-09T13:48:50.061Z</time>
      </trkpt>
      <trkpt lat="45.98011" lon="4.5821">
        <ele>562.90602715251</ele>
        <time>2022-03-09T13:48:53.447Z</time>
      </trkpt>
      <trkpt lat="45.98014" lon="4.58202">
        <ele>564.77942424839</ele>
        <time>2022-03-09T13:48:59.364Z</time>
      </trkpt>
      <trkpt lat="45.98022" lon="4.58203">
        <ele>566.74683633186</ele>
        <time>2022-03-09T13:49:06.885Z</time>
      </trkpt>
      <trkpt lat="45.98037" lon="4.58198">
        <ele>568.92180394736</ele>
        <time>2022-03-09T13:49:21.307Z</time>
      </trkpt>
      <trkpt lat="45.98064" lon="4.58171">
        <ele>571.35330431645</ele>
        <time>2022-03-09T13:49:37.867Z</time>
      </trkpt>
      <trkpt lat="45.98099" lon="4.58148">
        <ele>573.79690308316</ele>
        <time>2022-03-09T13:49:55.791Z</time>
      </trkpt>
      <trkpt lat="45.98114" lon="4.58141">
        <ele>576.2392711668</ele>
        <time>2022-03-09T13:50:10.561Z</time>
      </trkpt>
      <trkpt lat="45.98138" lon="4.58125">
        <ele>578.85681987716</ele>
        <time>2022-03-09T13:50:27.096Z</time>
      </trkpt>
      <trkpt lat="45.98161" lon="4.58116">
        <ele>581.65613919402</ele>
        <time>2022-03-09T13:50:45.231Z</time>
      </trkpt>
      <trkpt lat="45.98178" lon="4.58111">
        <ele>584.511323256</ele>
        <time>2022-03-09T13:51:01.483Z</time>
      </trkpt>
      <trkpt lat="45.98196" lon="4.5811">
        <ele>587.37259270685</ele>
        <time>2022-03-09T13:51:18.355Z</time>
      </trkpt>
      <trkpt lat="45.98207" lon="4.58107">
        <ele>590.28213803099</ele>
        <time>2022-03-09T13:51:28.841Z</time>
      </trkpt>
      <trkpt lat="45.98224" lon="4.58099">
        <ele>593.32199487522</ele>
        <time>2022-03-09T13:51:45.594Z</time>
      </trkpt>
      <trkpt lat="45.98231" lon="4.58088">
        <ele>596.41850816169</ele>
        <time>2022-03-09T13:51:55.302Z</time>
      </trkpt>
      <trkpt lat="45.98241" lon="4.58081">
        <ele>599.55191909972</ele>
        <time>2022-03-09T13:52:05.718Z</time>
      </trkpt>
      <trkpt lat="45.98245" lon="4.58075">
        <ele>602.70404649993</ele>
        <time>2022-03-09T13:52:11.130Z</time>
      </trkpt>
      <trkpt lat="45.98257" lon="4.58063">
        <ele>605.97634574203</ele>
        <time>2022-03-09T13:52:24.816Z</time>
      </trkpt>
      <trkpt lat="45.98272" lon="4.58045">
        <ele>609.29347954569</ele>
        <time>2022-03-09T13:52:43.110Z</time>
      </trkpt>
      <trkpt lat="45.98311" lon="4.58009">
        <ele>612.74594641426</ele>
        <time>2022-03-09T13:53:06.548Z</time>
      </trkpt>
      <trkpt lat="45.98314" lon="4.58002">
        <ele>616.02359846428</ele>
        <time>2022-03-09T13:53:11.901Z</time>
      </trkpt>
      <trkpt lat="45.98321" lon="4.57959">
        <ele>619.51931675422</ele>
        <time>2022-03-09T13:53:34.319Z</time>
      </trkpt>
      <trkpt lat="45.98326" lon="4.57937">
        <ele>622.93537708021</ele>
        <time>2022-03-09T13:53:49.384Z</time>
      </trkpt>
      <trkpt lat="45.98342" lon="4.57904">
        <ele>626.40275325501</ele>
        <time>2022-03-09T13:54:12.433Z</time>
      </trkpt>
      <trkpt lat="45.98347" lon="4.57887">
        <ele>629.77446183206</ele>
        <time>2022-03-09T13:54:24.448Z</time>
      </trkpt>
      <trkpt lat="45.98395" lon="4.578">
        <ele>633.4123725085</ele>
        <time>2022-03-09T13:54:56.619Z</time>
      </trkpt>
      <trkpt lat="45.98401" lon="4.57794">
        <ele>636.60789334933</ele>
        <time>2022-03-09T13:55:03.462Z</time>
      </trkpt>
      <trkpt lat="45.98408" lon="4.57783">
        <ele>639.71896129509</ele>
        <time>2022-03-09T13:55:13.170Z</time>
      </trkpt>
      <trkpt lat="45.98415" lon="4.57763">
        <ele>642.76644105256</ele>
        <time>2022-03-09T13:55:27.745Z</time>
      </trkpt>
      <trkpt lat="45.98433" lon="4.57725">
        <ele>645.7853225791</ele>
        <time>2022-03-09T13:55:46.893Z</time>
      </trkpt>
      <trkpt lat="45.98441" lon="4.57713">
        <ele>648.51461709953</ele>
        <time>2022-03-09T13:55:57.716Z</time>
      </trkpt>
      <trkpt lat="45.98453" lon="4.57691">
        <ele>651.23901698267</ele>
        <time>2022-03-09T13:56:15.919Z</time>
      </trkpt>
      <trkpt lat="45.98467" lon="4.57672">
        <ele>653.76868230588</ele>
        <time>2022-03-09T13:56:33.442Z</time>
      </trkpt>
      <trkpt lat="45.98469" lon="4.57659">
        <ele>656.13956424573</ele>
        <time>2022-03-09T13:56:42.108Z</time>
      </trkpt>
      <trkpt lat="45.98472" lon="4.57652">
        <ele>658.26848651036</ele>
        <time>2022-03-09T13:56:47.461Z</time>
      </trkpt>
      <trkpt lat="45.98482" lon="4.57634">
        <ele>660.28838776629</ele>
        <time>2022-03-09T13:57:01.029Z</time>
      </trkpt>
      <trkpt lat="45.98486" lon="4.57631">
        <ele>662.01362941406</ele>
        <time>2022-03-09T13:57:05.254Z</time>
      </trkpt>
      <trkpt lat="45.9849" lon="4.57624">
        <ele>663.5895754404</ele>
        <time>2022-03-09T13:57:11.152Z</time>
      </trkpt>
      <trkpt lat="45.98492" lon="4.57605">
        <ele>665.12324012536</ele>
        <time>2022-03-09T13:57:21.012Z</time>
      </trkpt>
      <trkpt lat="45.98491" lon="4.57578">
        <ele>666.51968065613</ele>
        <time>2022-03-09T13:57:30.502Z</time>
      </trkpt>
      <trkpt lat="45.98494" lon="4.57568">
        <ele>667.54846408496</ele>
        <time>2022-03-09T13:57:37.591Z</time>
      </trkpt>
      <trkpt lat="45.98496" lon="4.57547">
        <ele>668.41495489962</ele>
        <time>2022-03-09T13:57:44.229Z</time>
      </trkpt>
      <trkpt lat="45.98495" lon="4.57471">
        <ele>669.15932856622</ele>
        <time>2022-03-09T13:57:58.956Z</time>
      </trkpt>
      <trkpt lat="45.98501" lon="4.5745">
        <ele>669.55873573671</ele>
        <time>2022-03-09T13:58:03.944Z</time>
      </trkpt>
      <trkpt lat="45.98503" lon="4.57417">
        <ele>669.95390425224</ele>
        <time>2022-03-09T13:58:10.576Z</time>
      </trkpt>
      <trkpt lat="45.98512" lon="4.57375">
        <ele>670.21794373617</ele>
        <time>2022-03-09T13:58:18.630Z</time>
      </trkpt>
      <trkpt lat="45.9851" lon="4.57356">
        <ele>670.66920528356</ele>
        <time>2022-03-09T13:58:23.326Z</time>
      </trkpt>
      <trkpt lat="45.98513" lon="4.57346">
        <ele>670.63183925856</ele>
        <time>2022-03-09T13:58:25.035Z</time>
      </trkpt>
      <trkpt lat="45.98518" lon="4.57338">
        <ele>670.455193722</ele>
        <time>2022-03-09T13:58:26.100Z</time>
      </trkpt>
      <trkpt lat="45.98525" lon="4.57315">
        <ele>670.41380262321</ele>
        <time>2022-03-09T13:58:30.188Z</time>
      </trkpt>
      <trkpt lat="45.98537" lon="4.573">
        <ele>670.04689157479</ele>
        <time>2022-03-09T13:58:32.466Z</time>
      </trkpt>
      <trkpt lat="45.98559" lon="4.57287">
        <ele>669.28381940995</ele>
        <time>2022-03-09T13:58:35.560Z</time>
      </trkpt>
      <trkpt lat="45.98568" lon="4.57286">
        <ele>668.62749174088</ele>
        <time>2022-03-09T13:58:36.506Z</time>
      </trkpt>
      <trkpt lat="45.98581" lon="4.57288">
        <ele>667.97850236873</ele>
        <time>2022-03-09T13:58:37.947Z</time>
      </trkpt>
      <trkpt lat="45.98608" lon="4.57302">
        <ele>667.11240948765</ele>
        <time>2022-03-09T13:58:41.755Z</time>
      </trkpt>
      <trkpt lat="45.98622" lon="4.573">
        <ele>666.7550622423</ele>
        <time>2022-03-09T13:58:43.720Z</time>
      </trkpt>
      <trkpt lat="45.9864" lon="4.57286">
        <ele>666.68253974285</ele>
        <time>2022-03-09T13:58:48.432Z</time>
      </trkpt>
      <trkpt lat="45.9865" lon="4.57281">
        <ele>666.65631724837</ele>
        <time>2022-03-09T13:58:50.909Z</time>
      </trkpt>
      <trkpt lat="45.98665" lon="4.57268">
        <ele>666.90509935127</ele>
        <time>2022-03-09T13:58:55.797Z</time>
      </trkpt>
      <trkpt lat="45.98681" lon="4.57258">
        <ele>667.20061315893</ele>
        <time>2022-03-09T13:59:00.811Z</time>
      </trkpt>
      <trkpt lat="45.98704" lon="4.57252">
        <ele>667.59370132451</ele>
        <time>2022-03-09T13:59:07.521Z</time>
      </trkpt>
      <trkpt lat="45.98717" lon="4.57253">
        <ele>668.00324060207</ele>
        <time>2022-03-09T13:59:11.962Z</time>
      </trkpt>
      <trkpt lat="45.98725" lon="4.57256">
        <ele>668.54423297408</ele>
        <time>2022-03-09T13:59:15.867Z</time>
      </trkpt>
      <trkpt lat="45.98729" lon="4.57255">
        <ele>669.23615591963</ele>
        <time>2022-03-09T13:59:19.670Z</time>
      </trkpt>
      <trkpt lat="45.98737" lon="4.5725">
        <ele>670.10494947964</ele>
        <time>2022-03-09T13:59:25.157Z</time>
      </trkpt>
      <trkpt lat="45.98751" lon="4.57245">
        <ele>671.12301499913</ele>
        <time>2022-03-09T13:59:32.236Z</time>
      </trkpt>
      <trkpt lat="45.98755" lon="4.5724">
        <ele>672.27033761105</ele>
        <time>2022-03-09T13:59:37.199Z</time>
      </trkpt>
      <trkpt lat="45.98753" lon="4.57225">
        <ele>673.58788178253</ele>
        <time>2022-03-09T13:59:45.963Z</time>
      </trkpt>
      <trkpt lat="45.98755" lon="4.57222">
        <ele>674.9822533176</ele>
        <time>2022-03-09T13:59:48.669Z</time>
      </trkpt>
      <trkpt lat="45.98754" lon="4.57212">
        <ele>676.55959565804</ele>
        <time>2022-03-09T13:59:55.244Z</time>
      </trkpt>
      <trkpt lat="45.98747" lon="4.57199">
        <ele>678.30628053474</ele>
        <time>2022-03-09T14:00:05.947Z</time>
      </trkpt>
      <trkpt lat="45.98731" lon="4.57155">
        <ele>680.40401520771</ele>
        <time>2022-03-09T14:00:21.714Z</time>
      </trkpt>
      <trkpt lat="45.98711" lon="4.57115">
        <ele>682.4101730644</ele>
        <time>2022-03-09T14:00:37.120Z</time>
      </trkpt>
      <trkpt lat="45.98698" lon="4.57073">
        <ele>684.41889452845</ele>
        <time>2022-03-09T14:00:51.935Z</time>
      </trkpt>
      <trkpt lat="45.98694" lon="4.57056">
        <ele>686.25594308939</ele>
        <time>2022-03-09T14:01:03.615Z</time>
      </trkpt>
      <trkpt lat="45.98684" lon="4.57031">
        <ele>688.3045195167</ele>
        <time>2022-03-09T14:01:16.551Z</time>
      </trkpt>
      <trkpt lat="45.98681" lon="4.57006">
        <ele>690.17373307397</ele>
        <time>2022-03-09T14:01:28.378Z</time>
      </trkpt>
      <trkpt lat="45.9868" lon="4.56985">
        <ele>692.16136532884</ele>
        <time>2022-03-09T14:01:42.077Z</time>
      </trkpt>
      <trkpt lat="45.98674" lon="4.56949">
        <ele>694.43616368204</ele>
        <time>2022-03-09T14:01:56.676Z</time>
      </trkpt>
      <trkpt lat="45.98673" lon="4.56928">
        <ele>696.55590317285</ele>
        <time>2022-03-09T14:02:10.375Z</time>
      </trkpt>
      <trkpt lat="45.98676" lon="4.56911">
        <ele>698.52703313926</ele>
        <time>2022-03-09T14:02:21.790Z</time>
      </trkpt>
      <trkpt lat="45.98681" lon="4.56897">
        <ele>700.30618660492</ele>
        <time>2022-03-09T14:02:32.034Z</time>
      </trkpt>
      <trkpt lat="45.98696" lon="4.56874">
        <ele>701.79161774406</ele>
        <time>2022-03-09T14:02:42.567Z</time>
      </trkpt>
      <trkpt lat="45.98709" lon="4.56842">
        <ele>703.30193086748</ele>
        <time>2022-03-09T14:02:54.160Z</time>
      </trkpt>
      <trkpt lat="45.98712" lon="4.56827">
        <ele>704.91818755628</ele>
        <time>2022-03-09T14:03:04.318Z</time>
      </trkpt>
      <trkpt lat="45.98715" lon="4.56776">
        <ele>706.74675194338</ele>
        <time>2022-03-09T14:03:19.560Z</time>
      </trkpt>
      <trkpt lat="45.98727" lon="4.56724">
        <ele>708.33213166399</ele>
        <time>2022-03-09T14:03:34.506Z</time>
      </trkpt>
      <trkpt lat="45.98731" lon="4.56716">
        <ele>709.48413558841</ele>
        <time>2022-03-09T14:03:40.920Z</time>
      </trkpt>
      <trkpt lat="45.98747" lon="4.567">
        <ele>710.2772118355</ele>
        <time>2022-03-09T14:03:48.464Z</time>
      </trkpt>
      <trkpt lat="45.98765" lon="4.5669">
        <ele>710.92498657044</ele>
        <time>2022-03-09T14:03:55.230Z</time>
      </trkpt>
      <trkpt lat="45.988" lon="4.56663">
        <ele>711.82366287533</ele>
        <time>2022-03-09T14:04:07.395Z</time>
      </trkpt>
      <trkpt lat="45.98852" lon="4.56611">
        <ele>712.14698531063</ele>
        <time>2022-03-09T14:04:23.525Z</time>
      </trkpt>
      <trkpt lat="45.98882" lon="4.56605">
        <ele>712.26550573107</ele>
        <time>2022-03-09T14:04:31.154Z</time>
      </trkpt>
      <trkpt lat="45.98885" lon="4.56572">
        <ele>712.37640454605</ele>
        <time>2022-03-09T14:04:37.027Z</time>
      </trkpt>
      <trkpt lat="45.98883" lon="4.56557">
        <ele>712.17092971768</ele>
        <time>2022-03-09T14:04:38.615Z</time>
      </trkpt>
      <trkpt lat="45.98876" lon="4.56542">
        <ele>711.67732599145</ele>
        <time>2022-03-09T14:04:40.135Z</time>
      </trkpt>
      <trkpt lat="45.98874" lon="4.56528">
        <ele>710.99983862375</ele>
        <time>2022-03-09T14:04:41.176Z</time>
      </trkpt>
      <trkpt lat="45.98861" lon="4.56496">
        <ele>710.29163125828</ele>
        <time>2022-03-09T14:04:44.692Z</time>
      </trkpt>
      <trkpt lat="45.98856" lon="4.56468">
        <ele>709.24636994159</ele>
        <time>2022-03-09T14:04:46.861Z</time>
      </trkpt>
      <trkpt lat="45.98843" lon="4.56422">
        <ele>707.89773907451</ele>
        <time>2022-03-09T14:04:51.048Z</time>
      </trkpt>
      <trkpt lat="45.98842" lon="4.56411">
        <ele>706.29928347253</ele>
        <time>2022-03-09T14:04:51.856Z</time>
      </trkpt>
      <trkpt lat="45.98844" lon="4.56407">
        <ele>704.52642155769</ele>
        <time>2022-03-09T14:04:52.215Z</time>
      </trkpt>
      <trkpt lat="45.98849" lon="4.56403">
        <ele>702.49461895922</ele>
        <time>2022-03-09T14:04:52.814Z</time>
      </trkpt>
      <trkpt lat="45.98873" lon="4.56393">
        <ele>700.0491128847</ele>
        <time>2022-03-09T14:04:55.432Z</time>
      </trkpt>
      <trkpt lat="45.98883" lon="4.56387">
        <ele>697.73777688577</ele>
        <time>2022-03-09T14:04:56.567Z</time>
      </trkpt>
      <trkpt lat="45.98903" lon="4.56369">
        <ele>695.24577576308</ele>
        <time>2022-03-09T14:04:59.039Z</time>
      </trkpt>
      <trkpt lat="45.98928" lon="4.56341">
        <ele>692.53423056874</ele>
        <time>2022-03-09T14:05:02.358Z</time>
      </trkpt>
      <trkpt lat="45.98964" lon="4.56284">
        <ele>689.49116174052</ele>
        <time>2022-03-09T14:05:07.908Z</time>
      </trkpt>
      <trkpt lat="45.98985" lon="4.56245">
        <ele>686.58729757218</ele>
        <time>2022-03-09T14:05:11.500Z</time>
      </trkpt>
      <trkpt lat="45.99038" lon="4.56139">
        <ele>683.42525563853</ele>
        <time>2022-03-09T14:05:22.978Z</time>
      </trkpt>
      <trkpt lat="45.99053" lon="4.56106">
        <ele>680.43884358129</ele>
        <time>2022-03-09T14:05:25.849Z</time>
      </trkpt>
      <trkpt lat="45.99054" lon="4.56099">
        <ele>677.49201672274</ele>
        <time>2022-03-09T14:05:26.369Z</time>
      </trkpt>
      <trkpt lat="45.99052" lon="4.56099">
        <ele>674.5155194433</ele>
        <time>2022-03-09T14:05:26.578Z</time>
      </trkpt>
      <trkpt lat="45.99041" lon="4.56109">
        <ele>671.53291262329</ele>
        <time>2022-03-09T14:05:27.942Z</time>
      </trkpt>
      <trkpt lat="45.99037" lon="4.5611">
        <ele>668.50536752075</ele>
        <time>2022-03-09T14:05:28.367Z</time>
      </trkpt>
      <trkpt lat="45.99027" lon="4.56107">
        <ele>665.39869725068</ele>
        <time>2022-03-09T14:05:29.437Z</time>
      </trkpt>
      <trkpt lat="45.99006" lon="4.56115">
        <ele>662.31093920469</ele>
        <time>2022-03-09T14:05:31.714Z</time>
      </trkpt>
      <trkpt lat="45.98979" lon="4.56118">
        <ele>659.17589458804</ele>
        <time>2022-03-09T14:05:34.551Z</time>
      </trkpt>
      <trkpt lat="45.98959" lon="4.56125">
        <ele>656.04270743057</ele>
        <time>2022-03-09T14:05:36.708Z</time>
      </trkpt>
      <trkpt lat="45.98935" lon="4.56123">
        <ele>652.8596107377</ele>
        <time>2022-03-09T14:05:39.227Z</time>
      </trkpt>
      <trkpt lat="45.98927" lon="4.56129">
        <ele>649.94735651349</ele>
        <time>2022-03-09T14:05:40.172Z</time>
      </trkpt>
      <trkpt lat="45.98911" lon="4.5615">
        <ele>647.17804133217</ele>
        <time>2022-03-09T14:05:42.441Z</time>
      </trkpt>
      <trkpt lat="45.98903" lon="4.56158">
        <ele>644.51528170434</ele>
        <time>2022-03-09T14:05:43.462Z</time>
      </trkpt>
      <trkpt lat="45.98893" lon="4.56159">
        <ele>641.85136957838</ele>
        <time>2022-03-09T14:05:44.512Z</time>
      </trkpt>
      <trkpt lat="45.98883" lon="4.56155">
        <ele>639.17774807381</ele>
        <time>2022-03-09T14:05:45.600Z</time>
      </trkpt>
      <trkpt lat="45.98843" lon="4.56112">
        <ele>636.28422648868</ele>
        <time>2022-03-09T14:05:50.731Z</time>
      </trkpt>
      <trkpt lat="45.98807" lon="4.56064">
        <ele>633.61527415173</ele>
        <time>2022-03-09T14:05:55.925Z</time>
      </trkpt>
      <trkpt lat="45.98755" lon="4.56006">
        <ele>631.0717318261</ele>
        <time>2022-03-09T14:06:03.941Z</time>
      </trkpt>
      <trkpt lat="45.98711" lon="4.55944">
        <ele>628.52924905359</ele>
        <time>2022-03-09T14:06:11.260Z</time>
      </trkpt>
      <trkpt lat="45.98693" lon="4.55923">
        <ele>626.00587101663</ele>
        <time>2022-03-09T14:06:13.688Z</time>
      </trkpt>
      <trkpt lat="45.98682" lon="4.55914">
        <ele>623.71720633739</ele>
        <time>2022-03-09T14:06:15.014Z</time>
      </trkpt>
      <trkpt lat="45.9867" lon="4.55907">
        <ele>621.5671191917</ele>
        <time>2022-03-09T14:06:16.370Z</time>
      </trkpt>
      <trkpt lat="45.98658" lon="4.55902">
        <ele>619.53469424773</ele>
        <time>2022-03-09T14:06:17.679Z</time>
      </trkpt>
      <trkpt lat="45.98645" lon="4.55899">
        <ele>617.60665722953</ele>
        <time>2022-03-09T14:06:19.059Z</time>
      </trkpt>
      <trkpt lat="45.98629" lon="4.55898">
        <ele>615.7706187591</ele>
        <time>2022-03-09T14:06:20.737Z</time>
      </trkpt>
      <trkpt lat="45.98604" lon="4.55909">
        <ele>612.28839934311</ele>
        <time>2022-03-09T14:06:23.476Z</time>
      </trkpt>
      <trkpt lat="45.98594" lon="4.55916">
        <ele>610.73631295558</ele>
        <time>2022-03-09T14:06:24.641Z</time>
      </trkpt>
      <trkpt lat="45.98569" lon="4.55939">
        <ele>609.14321669796</ele>
        <time>2022-03-09T14:06:27.800Z</time>
      </trkpt>
      <trkpt lat="45.98557" lon="4.55953">
        <ele>607.73799224879</ele>
        <time>2022-03-09T14:06:29.419Z</time>
      </trkpt>
      <trkpt lat="45.98549" lon="4.55969">
        <ele>606.45685126329</ele>
        <time>2022-03-09T14:06:30.854Z</time>
      </trkpt>
      <trkpt lat="45.9854" lon="4.55992">
        <ele>605.32808597577</ele>
        <time>2022-03-09T14:06:32.686Z</time>
      </trkpt>
      <trkpt lat="45.98533" lon="4.56018">
        <ele>604.32105969857</ele>
        <time>2022-03-09T14:06:34.779Z</time>
      </trkpt>
      <trkpt lat="45.98527" lon="4.56025">
        <ele>603.27942568001</ele>
        <time>2022-03-09T14:06:35.588Z</time>
      </trkpt>
      <trkpt lat="45.98519" lon="4.56024">
        <ele>602.20173104394</ele>
        <time>2022-03-09T14:06:36.429Z</time>
      </trkpt>
      <trkpt lat="45.98493" lon="4.5601">
        <ele>601.07628248902</ele>
        <time>2022-03-09T14:06:39.752Z</time>
      </trkpt>
      <trkpt lat="45.98469" lon="4.55984">
        <ele>599.85411838004</ele>
        <time>2022-03-09T14:06:43.343Z</time>
      </trkpt>
      <trkpt lat="45.98459" lon="4.5597">
        <ele>598.76177172997</ele>
        <time>2022-03-09T14:06:44.804Z</time>
      </trkpt>
      <trkpt lat="45.98445" lon="4.55947">
        <ele>597.6130765156</ele>
        <time>2022-03-09T14:06:47.059Z</time>
      </trkpt>
      <trkpt lat="45.98437" lon="4.55939">
        <ele>596.58945561226</ele>
        <time>2022-03-09T14:06:48.080Z</time>
      </trkpt>
      <trkpt lat="45.98423" lon="4.55928">
        <ele>595.44681642412</ele>
        <time>2022-03-09T14:06:49.751Z</time>
      </trkpt>
      <trkpt lat="45.98413" lon="4.55925">
        <ele>594.34777554224</ele>
        <time>2022-03-09T14:06:50.822Z</time>
      </trkpt>
      <trkpt lat="45.98402" lon="4.55926">
        <ele>593.29338590942</ele>
        <time>2022-03-09T14:06:51.976Z</time>
      </trkpt>
      <trkpt lat="45.98382" lon="4.5594">
        <ele>592.19859088743</ele>
        <time>2022-03-09T14:06:54.437Z</time>
      </trkpt>
      <trkpt lat="45.98372" lon="4.55952">
        <ele>591.37546317286</ele>
        <time>2022-03-09T14:06:55.720Z</time>
      </trkpt>
      <trkpt lat="45.98362" lon="4.55973">
        <ele>590.79110746122</ele>
        <time>2022-03-09T14:06:57.999Z</time>
      </trkpt>
      <trkpt lat="45.98354" lon="4.55987">
        <ele>590.19229784295</ele>
        <time>2022-03-09T14:06:59.413Z</time>
      </trkpt>
      <trkpt lat="45.98344" lon="4.55996">
        <ele>589.52126574068</ele>
        <time>2022-03-09T14:07:00.636Z</time>
      </trkpt>
      <trkpt lat="45.98334" lon="4.55999">
        <ele>588.85617971404</ele>
        <time>2022-03-09T14:07:01.628Z</time>
      </trkpt>
      <trkpt lat="45.98303" lon="4.55982">
        <ele>588.31497874979</ele>
        <time>2022-03-09T14:07:06.778Z</time>
      </trkpt>
      <trkpt lat="45.98269" lon="4.55974">
        <ele>587.81748342648</ele>
        <time>2022-03-09T14:07:12.252Z</time>
      </trkpt>
      <trkpt lat="45.9821" lon="4.55948">
        <ele>586.85445618651</ele>
        <time>2022-03-09T14:07:21.914Z</time>
      </trkpt>
      <trkpt lat="45.98195" lon="4.55945">
        <ele>586.17136035425</ele>
        <time>2022-03-09T14:07:23.652Z</time>
      </trkpt>
      <trkpt lat="45.98171" lon="4.55942">
        <ele>585.49647312452</ele>
        <time>2022-03-09T14:07:26.922Z</time>
      </trkpt>
      <trkpt lat="45.98145" lon="4.55942">
        <ele>584.74854691395</ele>
        <time>2022-03-09T14:07:30.424Z</time>
      </trkpt>
      <trkpt lat="45.98131" lon="4.55946">
        <ele>584.00222454908</ele>
        <time>2022-03-09T14:07:31.962Z</time>
      </trkpt>
      <trkpt lat="45.9811" lon="4.55958">
        <ele>583.12845128425</ele>
        <time>2022-03-09T14:07:34.715Z</time>
      </trkpt>
      <trkpt lat="45.98092" lon="4.55969">
        <ele>582.34833718137</ele>
        <time>2022-03-09T14:07:37.070Z</time>
      </trkpt>
      <trkpt lat="45.98078" lon="4.55981">
        <ele>581.5271242334</ele>
        <time>2022-03-09T14:07:38.854Z</time>
      </trkpt>
      <trkpt lat="45.98057" lon="4.56008">
        <ele>580.70708064559</ele>
        <time>2022-03-09T14:07:42.633Z</time>
      </trkpt>
      <trkpt lat="45.98047" lon="4.56025">
        <ele>579.86907178282</ele>
        <time>2022-03-09T14:07:44.274Z</time>
      </trkpt>
      <trkpt lat="45.98039" lon="4.56044">
        <ele>579.0786439248</ele>
        <time>2022-03-09T14:07:45.953Z</time>
      </trkpt>
      <trkpt lat="45.98032" lon="4.56071">
        <ele>578.49300411257</ele>
        <time>2022-03-09T14:07:48.636Z</time>
      </trkpt>
      <trkpt lat="45.98033" lon="4.56117">
        <ele>578.26456298908</ele>
        <time>2022-03-09T14:07:55.636Z</time>
      </trkpt>
      <trkpt lat="45.98026" lon="4.56134">
        <ele>577.64419840785</ele>
        <time>2022-03-09T14:07:57.211Z</time>
      </trkpt>
      <trkpt lat="45.9801" lon="4.56158">
        <ele>576.98305075931</ele>
        <time>2022-03-09T14:08:00.329Z</time>
      </trkpt>
      <trkpt lat="45.97972" lon="4.56195">
        <ele>576.44774017714</ele>
        <time>2022-03-09T14:08:07.881Z</time>
      </trkpt>
      <trkpt lat="45.97937" lon="4.56201">
        <ele>576.05729730707</ele>
        <time>2022-03-09T14:08:13.728Z</time>
      </trkpt>
      <trkpt lat="45.97919" lon="4.56209">
        <ele>575.75457914667</ele>
        <time>2022-03-09T14:08:16.662Z</time>
      </trkpt>
      <trkpt lat="45.97909" lon="4.56217">
        <ele>575.51246902023</ele>
        <time>2022-03-09T14:08:18.338Z</time>
      </trkpt>
      <trkpt lat="45.97881" lon="4.56245">
        <ele>575.27096950981</ele>
        <time>2022-03-09T14:08:25.808Z</time>
      </trkpt>
      <trkpt lat="45.97859" lon="4.56274">
        <ele>575.19884119497</ele>
        <time>2022-03-09T14:08:32.794Z</time>
      </trkpt>
      <trkpt lat="45.97845" lon="4.56294">
        <ele>575.2469985905</ele>
        <time>2022-03-09T14:08:37.694Z</time>
      </trkpt>
      <trkpt lat="45.97823" lon="4.56316">
        <ele>575.39425386574</ele>
        <time>2022-03-09T14:08:44.544Z</time>
      </trkpt>
      <trkpt lat="45.97813" lon="4.56322">
        <ele>575.49452984378</ele>
        <time>2022-03-09T14:08:47.419Z</time>
      </trkpt>
      <trkpt lat="45.97799" lon="4.56328">
        <ele>575.61671017222</ele>
        <time>2022-03-09T14:08:51.261Z</time>
      </trkpt>
      <trkpt lat="45.97783" lon="4.56331">
        <ele>575.80113940176</ele>
        <time>2022-03-09T14:08:55.637Z</time>
      </trkpt>
      <trkpt lat="45.97756" lon="4.56329">
        <ele>576.001431741</ele>
        <time>2022-03-09T14:09:02.680Z</time>
      </trkpt>
      <trkpt lat="45.97732" lon="4.56319">
        <ele>576.29756078015</ele>
        <time>2022-03-09T14:09:09.486Z</time>
      </trkpt>
      <trkpt lat="45.97688" lon="4.56289">
        <ele>576.72325724803</ele>
        <time>2022-03-09T14:09:22.339Z</time>
      </trkpt>
      <trkpt lat="45.97655" lon="4.5627">
        <ele>577.30528112697</ele>
        <time>2022-03-09T14:09:32.493Z</time>
      </trkpt>
      <trkpt lat="45.97648" lon="4.56267">
        <ele>577.94952760355</ele>
        <time>2022-03-09T14:09:36.630Z</time>
      </trkpt>
      <trkpt lat="45.97637" lon="4.56265">
        <ele>578.67034271286</ele>
        <time>2022-03-09T14:09:41.852Z</time>
      </trkpt>
      <trkpt lat="45.9762" lon="4.56268">
        <ele>579.57451968952</ele>
        <time>2022-03-09T14:09:49.260Z</time>
      </trkpt>
      <trkpt lat="45.97576" lon="4.56285">
        <ele>580.67085987719</ele>
        <time>2022-03-09T14:10:03.451Z</time>
      </trkpt>
      <trkpt lat="45.97538" lon="4.56301">
        <ele>581.71993083772</ele>
        <time>2022-03-09T14:10:16.147Z</time>
      </trkpt>
      <trkpt lat="45.97532" lon="4.56304">
        <ele>582.91524405363</ele>
        <time>2022-03-09T14:10:22.096Z</time>
      </trkpt>
      <trkpt lat="45.97528" lon="4.56309">
        <ele>584.23014768417</ele>
        <time>2022-03-09T14:10:27.059Z</time>
      </trkpt>
      <trkpt lat="45.97506" lon="4.56341">
        <ele>585.77330309719</ele>
        <time>2022-03-09T14:10:40.284Z</time>
      </trkpt>
      <trkpt lat="45.97506" lon="4.5635">
        <ele>587.28101569285</ele>
        <time>2022-03-09T14:10:46.142Z</time>
      </trkpt>
      <trkpt lat="45.9751" lon="4.56351">
        <ele>588.82799316864</ele>
        <time>2022-03-09T14:10:49.945Z</time>
      </trkpt>
      <trkpt lat="45.97514" lon="4.56346">
        <ele>590.40581867542</ele>
        <time>2022-03-09T14:10:54.908Z</time>
      </trkpt>
      <trkpt lat="45.9753" lon="4.56341">
        <ele>592.09607767067</ele>
        <time>2022-03-09T14:11:05.584Z</time>
      </trkpt>
      <trkpt lat="45.97542" lon="4.56341">
        <ele>593.82298975679</ele>
        <time>2022-03-09T14:11:16.824Z</time>
      </trkpt>
      <trkpt lat="45.97558" lon="4.56335">
        <ele>595.53393094579</ele>
        <time>2022-03-09T14:11:27.631Z</time>
      </trkpt>
      <trkpt lat="45.97569" lon="4.56335">
        <ele>597.25087393515</ele>
        <time>2022-03-09T14:11:37.934Z</time>
      </trkpt>
      <trkpt lat="45.97584" lon="4.56339">
        <ele>598.98288451544</ele>
        <time>2022-03-09T14:11:49.031Z</time>
      </trkpt>
      <trkpt lat="45.97608" lon="4.56339">
        <ele>600.73033845044</ele>
        <time>2022-03-09T14:12:01.013Z</time>
      </trkpt>
      <trkpt lat="45.97631" lon="4.56344">
        <ele>602.46160790943</ele>
        <time>2022-03-09T14:12:12.772Z</time>
      </trkpt>
      <trkpt lat="45.97651" lon="4.56354">
        <ele>604.06842102862</ele>
        <time>2022-03-09T14:12:23.598Z</time>
      </trkpt>
      <trkpt lat="45.97664" lon="4.56364">
        <ele>605.46621673259</ele>
        <time>2022-03-09T14:12:32.460Z</time>
      </trkpt>
      <trkpt lat="45.97706" lon="4.56408">
        <ele>606.92297850533</ele>
        <time>2022-03-09T14:12:49.436Z</time>
      </trkpt>
      <trkpt lat="45.97719" lon="4.56419">
        <ele>608.10154279175</ele>
        <time>2022-03-09T14:12:57.288Z</time>
      </trkpt>
      <trkpt lat="45.97723" lon="4.56428">
        <ele>609.10686777471</ele>
        <time>2022-03-09T14:13:04.242Z</time>
      </trkpt>
      <trkpt lat="45.97724" lon="4.56434">
        <ele>609.86763016937</ele>
        <time>2022-03-09T14:13:08.258Z</time>
      </trkpt>
      <trkpt lat="45.9772" lon="4.56454">
        <ele>610.43138151133</ele>
        <time>2022-03-09T14:13:13.720Z</time>
      </trkpt>
      <trkpt lat="45.97699" lon="4.56516">
        <ele>610.92613211544</ele>
        <time>2022-03-09T14:13:26.575Z</time>
      </trkpt>
      <trkpt lat="45.97696" lon="4.56533">
        <ele>610.98114120819</ele>
        <time>2022-03-09T14:13:29.663Z</time>
      </trkpt>
      <trkpt lat="45.97693" lon="4.56556">
        <ele>610.76599799028</ele>
        <time>2022-03-09T14:13:32.286Z</time>
      </trkpt>
      <trkpt lat="45.97681" lon="4.56587">
        <ele>610.2101873172</ele>
        <time>2022-03-09T14:13:35.843Z</time>
      </trkpt>
      <trkpt lat="45.97677" lon="4.56616">
        <ele>609.51947938998</ele>
        <time>2022-03-09T14:13:38.475Z</time>
      </trkpt>
      <trkpt lat="45.97658" lon="4.5663">
        <ele>608.24874866727</ele>
        <time>2022-03-09T14:13:40.641Z</time>
      </trkpt>
      <trkpt lat="45.9763" lon="4.56642">
        <ele>606.72064112745</ele>
        <time>2022-03-09T14:13:43.788Z</time>
      </trkpt>
      <trkpt lat="45.97619" lon="4.5665">
        <ele>605.00009034818</ele>
        <time>2022-03-09T14:13:45.079Z</time>
      </trkpt>
      <trkpt lat="45.97557" lon="4.567">
        <ele>602.82995669409</ele>
        <time>2022-03-09T14:13:54.475Z</time>
      </trkpt>
      <trkpt lat="45.97545" lon="4.56714">
        <ele>600.64780887715</ele>
        <time>2022-03-09T14:13:56.093Z</time>
      </trkpt>
      <trkpt lat="45.97511" lon="4.56728">
        <ele>598.02087787704</ele>
        <time>2022-03-09T14:13:59.799Z</time>
      </trkpt>
      <trkpt lat="45.97453" lon="4.56741">
        <ele>594.82502506933</ele>
        <time>2022-03-09T14:14:06.009Z</time>
      </trkpt>
      <trkpt lat="45.97438" lon="4.5675">
        <ele>592.14108880304</ele>
        <time>2022-03-09T14:14:07.712Z</time>
      </trkpt>
      <trkpt lat="45.97416" lon="4.56773">
        <ele>589.18424580999</ele>
        <time>2022-03-09T14:14:10.561Z</time>
      </trkpt>
      <trkpt lat="45.97402" lon="4.56784">
        <ele>586.31966493959</ele>
        <time>2022-03-09T14:14:12.233Z</time>
      </trkpt>
      <trkpt lat="45.97385" lon="4.56791">
        <ele>583.37094496472</ele>
        <time>2022-03-09T14:14:14.085Z</time>
      </trkpt>
      <trkpt lat="45.97329" lon="4.56809">
        <ele>580.18547932066</ele>
        <time>2022-03-09T14:14:20.102Z</time>
      </trkpt>
      <trkpt lat="45.97298" lon="4.5683">
        <ele>577.35416064095</ele>
        <time>2022-03-09T14:14:23.692Z</time>
      </trkpt>
      <trkpt lat="45.97271" lon="4.56843">
        <ele>574.46127738532</ele>
        <time>2022-03-09T14:14:26.675Z</time>
      </trkpt>
      <trkpt lat="45.97239" lon="4.56856">
        <ele>571.73961779873</ele>
        <time>2022-03-09T14:14:30.159Z</time>
      </trkpt>
      <trkpt lat="45.9719" lon="4.56871">
        <ele>568.91659020391</ele>
        <time>2022-03-09T14:14:35.376Z</time>
      </trkpt>
      <trkpt lat="45.97185" lon="4.56868">
        <ele>566.3633629356</ele>
        <time>2022-03-09T14:14:35.944Z</time>
      </trkpt>
      <trkpt lat="45.97178" lon="4.56851">
        <ele>563.88173117871</ele>
        <time>2022-03-09T14:14:37.383Z</time>
      </trkpt>
      <trkpt lat="45.97171" lon="4.56841">
        <ele>561.50998613334</ele>
        <time>2022-03-09T14:14:38.416Z</time>
      </trkpt>
      <trkpt lat="45.97146" lon="4.56812">
        <ele>559.11360847775</ele>
        <time>2022-03-09T14:14:41.781Z</time>
      </trkpt>
      <trkpt lat="45.97137" lon="4.56802">
        <ele>556.96911075448</ele>
        <time>2022-03-09T14:14:42.973Z</time>
      </trkpt>
      <trkpt lat="45.97113" lon="4.56783">
        <ele>554.83201139438</ele>
        <time>2022-03-09T14:14:45.843Z</time>
      </trkpt>
      <trkpt lat="45.971" lon="4.56768">
        <ele>552.94704711011</ele>
        <time>2022-03-09T14:14:47.589Z</time>
      </trkpt>
      <trkpt lat="45.97094" lon="4.56765">
        <ele>551.23290578865</ele>
        <time>2022-03-09T14:14:48.255Z</time>
      </trkpt>
      <trkpt lat="45.97067" lon="4.56761">
        <ele>549.57837000551</ele>
        <time>2022-03-09T14:14:50.978Z</time>
      </trkpt>
      <trkpt lat="45.97045" lon="4.56747">
        <ele>548.17143339715</ele>
        <time>2022-03-09T14:14:53.440Z</time>
      </trkpt>
      <trkpt lat="45.9704" lon="4.56745">
        <ele>546.82030889779</ele>
        <time>2022-03-09T14:14:53.983Z</time>
      </trkpt>
      <trkpt lat="45.9703" lon="4.56745">
        <ele>545.57031267188</ele>
        <time>2022-03-09T14:14:55.031Z</time>
      </trkpt>
      <trkpt lat="45.97016" lon="4.56751">
        <ele>544.38231642172</ele>
        <time>2022-03-09T14:14:56.562Z</time>
      </trkpt>
      <trkpt lat="45.97002" lon="4.5676">
        <ele>543.24375674562</ele>
        <time>2022-03-09T14:14:58.169Z</time>
      </trkpt>
      <trkpt lat="45.96968" lon="4.56787">
        <ele>542.12639420935</ele>
        <time>2022-03-09T14:15:03.399Z</time>
      </trkpt>
      <trkpt lat="45.96941" lon="4.56804">
        <ele>541.05905817947</ele>
        <time>2022-03-09T14:15:07.076Z</time>
      </trkpt>
      <trkpt lat="45.9692" lon="4.5682">
        <ele>540.02701206951</ele>
        <time>2022-03-09T14:15:09.845Z</time>
      </trkpt>
      <trkpt lat="45.9688" lon="4.56863">
        <ele>539.08468000712</ele>
        <time>2022-03-09T14:15:17.361Z</time>
      </trkpt>
      <trkpt lat="45.96844" lon="4.5691">
        <ele>537.99360952618</ele>
        <time>2022-03-09T14:15:24.380Z</time>
      </trkpt>
      <trkpt lat="45.96831" lon="4.5692">
        <ele>536.88468202749</ele>
        <time>2022-03-09T14:15:25.924Z</time>
      </trkpt>
      <trkpt lat="45.96778" lon="4.5695">
        <ele>535.57739778034</ele>
        <time>2022-03-09T14:15:34.100Z</time>
      </trkpt>
      <trkpt lat="45.96768" lon="4.56952">
        <ele>534.34419912645</ele>
        <time>2022-03-09T14:15:35.158Z</time>
      </trkpt>
      <trkpt lat="45.96762" lon="4.56953">
        <ele>533.11109881362</ele>
        <time>2022-03-09T14:15:35.791Z</time>
      </trkpt>
      <trkpt lat="45.96735" lon="4.56947">
        <ele>531.64704299484</ele>
        <time>2022-03-09T14:15:38.702Z</time>
      </trkpt>
      <trkpt lat="45.96725" lon="4.56942">
        <ele>530.19687654991</ele>
        <time>2022-03-09T14:15:39.811Z</time>
      </trkpt>
      <trkpt lat="45.96709" lon="4.5693">
        <ele>528.59565013711</ele>
        <time>2022-03-09T14:15:41.702Z</time>
      </trkpt>
      <trkpt lat="45.96705" lon="4.5693">
        <ele>527.0740944583</ele>
        <time>2022-03-09T14:15:42.121Z</time>
      </trkpt>
      <trkpt lat="45.96703" lon="4.56938">
        <ele>525.51165680946</ele>
        <time>2022-03-09T14:15:42.740Z</time>
      </trkpt>
      <trkpt lat="45.96705" lon="4.56967">
        <ele>523.88981920173</ele>
        <time>2022-03-09T14:15:44.863Z</time>
      </trkpt>
      <trkpt lat="45.96713" lon="4.57009">
        <ele>522.3101764992</ele>
        <time>2022-03-09T14:15:48.127Z</time>
      </trkpt>
      <trkpt lat="45.96694" lon="4.57071">
        <ele>520.22050641221</ele>
        <time>2022-03-09T14:15:53.567Z</time>
      </trkpt>
      <trkpt lat="45.96688" lon="4.57082">
        <ele>518.32236904463</ele>
        <time>2022-03-09T14:15:54.585Z</time>
      </trkpt>
      <trkpt lat="45.96675" lon="4.57096">
        <ele>516.29026604988</ele>
        <time>2022-03-09T14:15:56.287Z</time>
      </trkpt>
      <trkpt lat="45.96666" lon="4.57103">
        <ele>514.21973448824</ele>
        <time>2022-03-09T14:15:57.359Z</time>
      </trkpt>
      <trkpt lat="45.96651" lon="4.57111">
        <ele>512.09817515276</ele>
        <time>2022-03-09T14:15:59.035Z</time>
      </trkpt>
      <trkpt lat="45.96645" lon="4.57116">
        <ele>509.88438059502</ele>
        <time>2022-03-09T14:15:59.762Z</time>
      </trkpt>
      <trkpt lat="45.96613" lon="4.57158">
        <ele>507.25676657317</ele>
        <time>2022-03-09T14:16:04.118Z</time>
      </trkpt>
      <trkpt lat="45.96598" lon="4.57184">
        <ele>504.80986796569</ele>
        <time>2022-03-09T14:16:06.579Z</time>
      </trkpt>
      <trkpt lat="45.96579" lon="4.5721">
        <ele>502.2217263053</ele>
        <time>2022-03-09T14:16:09.326Z</time>
      </trkpt>
      <trkpt lat="45.9655" lon="4.57274">
        <ele>499.32379989197</ele>
        <time>2022-03-09T14:16:14.938Z</time>
      </trkpt>
      <trkpt lat="45.96549" lon="4.57281">
        <ele>497.01521435955</ele>
        <time>2022-03-09T14:16:15.459Z</time>
      </trkpt>
      <trkpt lat="45.96552" lon="4.57286">
        <ele>494.71118660078</ele>
        <time>2022-03-09T14:16:15.940Z</time>
      </trkpt>
      <trkpt lat="45.96556" lon="4.57287">
        <ele>492.45529058455</ele>
        <time>2022-03-09T14:16:16.365Z</time>
      </trkpt>
      <trkpt lat="45.9664" lon="4.5731">
        <ele>490.12385090444</ele>
        <time>2022-03-09T14:16:28.068Z</time>
      </trkpt>
      <trkpt lat="45.96668" lon="4.57314">
        <ele>487.84242801923</ele>
        <time>2022-03-09T14:16:31.016Z</time>
      </trkpt>
      <trkpt lat="45.96683" lon="4.57313">
        <ele>485.56704242691</ele>
        <time>2022-03-09T14:16:32.590Z</time>
      </trkpt>
      <trkpt lat="45.96694" lon="4.57311">
        <ele>483.29945111877</ele>
        <time>2022-03-09T14:16:33.751Z</time>
      </trkpt>
      <trkpt lat="45.96698" lon="4.57312">
        <ele>481.00481181317</ele>
        <time>2022-03-09T14:16:34.177Z</time>
      </trkpt>
      <trkpt lat="45.96711" lon="4.57364">
        <ele>478.21961101421</ele>
        <time>2022-03-09T14:16:38.202Z</time>
      </trkpt>
      <trkpt lat="45.96709" lon="4.57374">
        <ele>475.83740258843</ele>
        <time>2022-03-09T14:16:38.959Z</time>
      </trkpt>
      <trkpt lat="45.96702" lon="4.57377">
        <ele>473.51187338368</ele>
        <time>2022-03-09T14:16:39.725Z</time>
      </trkpt>
      <trkpt lat="45.96682" lon="4.57377">
        <ele>471.15543484556</ele>
        <time>2022-03-09T14:16:41.820Z</time>
      </trkpt>
      <trkpt lat="45.96677" lon="4.57379">
        <ele>468.86180287918</ele>
        <time>2022-03-09T14:16:42.364Z</time>
      </trkpt>
      <trkpt lat="45.96673" lon="4.5739">
        <ele>466.49525883552</ele>
        <time>2022-03-09T14:16:43.268Z</time>
      </trkpt>
      <trkpt lat="45.96673" lon="4.57414">
        <ele>463.98170860538</ele>
        <time>2022-03-09T14:16:45.016Z</time>
      </trkpt>
      <trkpt lat="45.96672" lon="4.57418">
        <ele>461.70158399063</ele>
        <time>2022-03-09T14:16:45.326Z</time>
      </trkpt>
      <trkpt lat="45.96668" lon="4.57422">
        <ele>459.41793395131</ele>
        <time>2022-03-09T14:16:45.836Z</time>
      </trkpt>
      <trkpt lat="45.96639" lon="4.57416">
        <ele>457.18714605601</ele>
        <time>2022-03-09T14:16:48.906Z</time>
      </trkpt>
      <trkpt lat="45.96617" lon="4.57414">
        <ele>454.89461017767</ele>
        <time>2022-03-09T14:16:51.216Z</time>
      </trkpt>
      <trkpt lat="45.96581" lon="4.57428">
        <ele>452.46610093951</ele>
        <time>2022-03-09T14:16:54.838Z</time>
      </trkpt>
      <trkpt lat="45.96551" lon="4.57438">
        <ele>450.14483048121</ele>
        <time>2022-03-09T14:16:58.065Z</time>
      </trkpt>
      <trkpt lat="45.96516" lon="4.57462">
        <ele>447.58892469214</ele>
        <time>2022-03-09T14:17:01.808Z</time>
      </trkpt>
      <trkpt lat="45.96505" lon="4.57467">
        <ele>445.21173070057</ele>
        <time>2022-03-09T14:17:03.017Z</time>
      </trkpt>
      <trkpt lat="45.96494" lon="4.5747">
        <ele>442.83215945672</ele>
        <time>2022-03-09T14:17:04.190Z</time>
      </trkpt>
      <trkpt lat="45.96447" lon="4.57475">
        <ele>440.38507214704</ele>
        <time>2022-03-09T14:17:09.283Z</time>
      </trkpt>
      <trkpt lat="45.96395" lon="4.5749">
        <ele>437.86110285835</ele>
        <time>2022-03-09T14:17:15.234Z</time>
      </trkpt>
      <trkpt lat="45.96374" lon="4.57493">
        <ele>435.39625864609</ele>
        <time>2022-03-09T14:17:17.445Z</time>
      </trkpt>
      <trkpt lat="45.9636" lon="4.57494">
        <ele>432.99453777428</ele>
        <time>2022-03-09T14:17:18.914Z</time>
      </trkpt>
      <trkpt lat="45.96336" lon="4.57492">
        <ele>430.57757947233</ele>
        <time>2022-03-09T14:17:21.433Z</time>
      </trkpt>
      <trkpt lat="45.96317" lon="4.57487">
        <ele>428.25565136691</ele>
        <time>2022-03-09T14:17:23.457Z</time>
      </trkpt>
      <trkpt lat="45.96296" lon="4.57477">
        <ele>425.94032905751</ele>
        <time>2022-03-09T14:17:25.775Z</time>
      </trkpt>
      <trkpt lat="45.96257" lon="4.5747">
        <ele>423.47196618636</ele>
        <time>2022-03-09T14:17:29.661Z</time>
      </trkpt>
      <trkpt lat="45.96231" lon="4.57469">
        <ele>421.01784091415</ele>
        <time>2022-03-09T14:17:32.386Z</time>
      </trkpt>
      <trkpt lat="45.96228" lon="4.5747">
        <ele>418.76993760255</ele>
        <time>2022-03-09T14:17:32.709Z</time>
      </trkpt>
      <trkpt lat="45.96225" lon="4.57477">
        <ele>416.54726742974</ele>
        <time>2022-03-09T14:17:33.308Z</time>
      </trkpt>
      <trkpt lat="45.96192" lon="4.57575">
        <ele>413.61845418916</ele>
        <time>2022-03-09T14:17:42.529Z</time>
      </trkpt>
      <trkpt lat="45.96183" lon="4.57589">
        <ele>411.39285279705</ele>
        <time>2022-03-09T14:17:43.918Z</time>
      </trkpt>
      <trkpt lat="45.96175" lon="4.57599">
        <ele>409.26923153163</ele>
        <time>2022-03-09T14:17:45.029Z</time>
      </trkpt>
      <trkpt lat="45.96169" lon="4.57602">
        <ele>407.25588521412</ele>
        <time>2022-03-09T14:17:45.694Z</time>
      </trkpt>
      <trkpt lat="45.96166" lon="4.57601">
        <ele>405.38395581159</ele>
        <time>2022-03-09T14:17:46.017Z</time>
      </trkpt>
      <trkpt lat="45.96164" lon="4.57598">
        <ele>403.60115789239</ele>
        <time>2022-03-09T14:17:46.320Z</time>
      </trkpt>
      <trkpt lat="45.96163" lon="4.57587">
        <ele>401.94177176398</ele>
        <time>2022-03-09T14:17:47.128Z</time>
      </trkpt>
      <trkpt lat="45.96173" lon="4.575">
        <ele>400.7864917774</ele>
        <time>2022-03-09T14:17:56.357Z</time>
      </trkpt>
      <trkpt lat="45.96172" lon="4.57491">
        <ele>399.27151325178</ele>
        <time>2022-03-09T14:17:57.021Z</time>
      </trkpt>
      <trkpt lat="45.96169" lon="4.57489">
        <ele>397.74667955299</ele>
        <time>2022-03-09T14:17:57.367Z</time>
      </trkpt>
      <trkpt lat="45.96165" lon="4.57494">
        <ele>396.23657750886</ele>
        <time>2022-03-09T14:17:57.922Z</time>
      </trkpt>
      <trkpt lat="45.96155" lon="4.5752">
        <ele>394.60089150047</ele>
        <time>2022-03-09T14:18:00.087Z</time>
      </trkpt>
      <trkpt lat="45.96127" lon="4.5758">
        <ele>392.94875725665</ele>
        <time>2022-03-09T14:18:06.568Z</time>
      </trkpt>
      <trkpt lat="45.96119" lon="4.57605">
        <ele>391.61968679289</ele>
        <time>2022-03-09T14:18:08.573Z</time>
      </trkpt>
      <trkpt lat="45.96116" lon="4.57619">
        <ele>390.37431388271</ele>
        <time>2022-03-09T14:18:09.640Z</time>
      </trkpt>
      <trkpt lat="45.96112" lon="4.57649">
        <ele>389.15500624576</ele>
        <time>2022-03-09T14:18:11.832Z</time>
      </trkpt>
      <trkpt lat="45.96109" lon="4.57728">
        <ele>388.03131942523</ele>
        <time>2022-03-09T14:18:19.960Z</time>
      </trkpt>
      <trkpt lat="45.96107" lon="4.57743">
        <ele>387.14224787493</ele>
        <time>2022-03-09T14:18:21.072Z</time>
      </trkpt>
      <trkpt lat="45.96102" lon="4.57755">
        <ele>386.31038760354</ele>
        <time>2022-03-09T14:18:22.091Z</time>
      </trkpt>
      <trkpt lat="45.96096" lon="4.57765">
        <ele>385.56885217856</ele>
        <time>2022-03-09T14:18:23.053Z</time>
      </trkpt>
      <trkpt lat="45.96089" lon="4.57771">
        <ele>384.88454366879</ele>
        <time>2022-03-09T14:18:23.907Z</time>
      </trkpt>
      <trkpt lat="45.96025" lon="4.57811">
        <ele>383.62120690571</ele>
        <time>2022-03-09T14:18:34.507Z</time>
      </trkpt>
      <trkpt lat="45.96018" lon="4.57813">
        <ele>383.0971375297</ele>
        <time>2022-03-09T14:18:35.255Z</time>
      </trkpt>
      <trkpt lat="45.96016" lon="4.5781">
        <ele>382.6289664942</ele>
        <time>2022-03-09T14:18:35.557Z</time>
      </trkpt>
      <trkpt lat="45.9602" lon="4.57796">
        <ele>382.22873471018</ele>
        <time>2022-03-09T14:18:36.847Z</time>
      </trkpt>
      <trkpt lat="45.96019" lon="4.57771">
        <ele>381.81257804696</ele>
        <time>2022-03-09T14:18:39.319Z</time>
      </trkpt>
      <trkpt lat="45.96009" lon="4.57716">
        <ele>381.43145787265</ele>
        <time>2022-03-09T14:18:46.001Z</time>
      </trkpt>
      <trkpt lat="45.96007" lon="4.57709">
        <ele>381.25779576936</ele>
        <time>2022-03-09T14:18:46.679Z</time>
      </trkpt>
      <trkpt lat="45.95992" lon="4.57686">
        <ele>381.15961814478</ele>
        <time>2022-03-09T14:18:51.661Z</time>
      </trkpt>
      <trkpt lat="45.95982" lon="4.57662">
        <ele>381.19809750828</ele>
        <time>2022-03-09T14:18:56.471Z</time>
      </trkpt>
      <trkpt lat="45.95975" lon="4.57654">
        <ele>381.28984807038</ele>
        <time>2022-03-09T14:18:58.867Z</time>
      </trkpt>
      <trkpt lat="45.95951" lon="4.57643">
        <ele>381.42262355945</ele>
        <time>2022-03-09T14:19:05.294Z</time>
      </trkpt>
      <trkpt lat="45.95937" lon="4.57635">
        <ele>381.56024574209</ele>
        <time>2022-03-09T14:19:09.287Z</time>
      </trkpt>
      <trkpt lat="45.95898" lon="4.57601">
        <ele>381.7016943151</ele>
        <time>2022-03-09T14:19:20.684Z</time>
      </trkpt>
      <trkpt lat="45.95872" lon="4.57574">
        <ele>381.95322886312</ele>
        <time>2022-03-09T14:19:29.074Z</time>
      </trkpt>
      <trkpt lat="45.9586" lon="4.57554">
        <ele>382.27181672859</ele>
        <time>2022-03-09T14:19:34.377Z</time>
      </trkpt>
      <trkpt lat="45.95854" lon="4.57539">
        <ele>382.64778697266</ele>
        <time>2022-03-09T14:19:38.470Z</time>
      </trkpt>
      <trkpt lat="45.95841" lon="4.57481">
        <ele>383.1260405724</ele>
        <time>2022-03-09T14:19:49.944Z</time>
      </trkpt>
      <trkpt lat="45.9583" lon="4.57456">
        <ele>383.64005418124</ele>
        <time>2022-03-09T14:19:56.421Z</time>
      </trkpt>
      <trkpt lat="45.95808" lon="4.57422">
        <ele>384.18870409001</ele>
        <time>2022-03-09T14:20:05.708Z</time>
      </trkpt>
      <trkpt lat="45.95785" lon="4.57395">
        <ele>384.73276870568</ele>
        <time>2022-03-09T14:20:14.371Z</time>
      </trkpt>
      <trkpt lat="45.95774" lon="4.57385">
        <ele>385.23226366372</ele>
        <time>2022-03-09T14:20:19.244Z</time>
      </trkpt>
      <trkpt lat="45.95758" lon="4.57376">
        <ele>385.70453351541</ele>
        <time>2022-03-09T14:20:24.820Z</time>
      </trkpt>
      <trkpt lat="45.95753" lon="4.57369">
        <ele>386.21696709571</ele>
        <time>2022-03-09T14:20:28.320Z</time>
      </trkpt>
      <trkpt lat="45.9575" lon="4.57348">
        <ele>386.78201481897</ele>
        <time>2022-03-09T14:20:33.865Z</time>
      </trkpt>
      <trkpt lat="45.95748" lon="4.57279">
        <ele>387.54900532357</ele>
        <time>2022-03-09T14:20:47.522Z</time>
      </trkpt>
      <trkpt lat="45.95753" lon="4.5723">
        <ele>388.11666903344</ele>
        <time>2022-03-09T14:20:57.370Z</time>
      </trkpt>
      <trkpt lat="45.95753" lon="4.57218">
        <ele>388.42982121611</ele>
        <time>2022-03-09T14:21:00.457Z</time>
      </trkpt>
      <trkpt lat="45.95752" lon="4.57211">
        <ele>388.62963035531</ele>
        <time>2022-03-09T14:21:02.367Z</time>
      </trkpt>
      <trkpt lat="45.95747" lon="4.57209">
        <ele>388.70314678676</ele>
        <time>2022-03-09T14:21:03.815Z</time>
      </trkpt>
      <trkpt lat="45.95736" lon="4.57228">
        <ele>388.5784905395</ele>
        <time>2022-03-09T14:21:06.817Z</time>
      </trkpt>
      <trkpt lat="45.95719" lon="4.57247">
        <ele>388.25571922017</ele>
        <time>2022-03-09T14:21:10.214Z</time>
      </trkpt>
      <trkpt lat="45.9571" lon="4.57252">
        <ele>387.95444545839</ele>
        <time>2022-03-09T14:21:11.480Z</time>
      </trkpt>
      <trkpt lat="45.95703" lon="4.57251">
        <ele>387.55683476781</ele>
        <time>2022-03-09T14:21:12.212Z</time>
      </trkpt>
      <trkpt lat="45.95688" lon="4.57236">
        <ele>387.06399131711</ele>
        <time>2022-03-09T14:21:14.720Z</time>
      </trkpt>
      <trkpt lat="45.95671" lon="4.57207">
        <ele>386.54711401663</ele>
        <time>2022-03-09T14:21:18.655Z</time>
      </trkpt>
      <trkpt lat="45.95632" lon="4.57173">
        <ele>385.77137289339</ele>
        <time>2022-03-09T14:21:25.675Z</time>
      </trkpt>
      <trkpt lat="45.95624" lon="4.57172">
        <ele>384.93732529081</ele>
        <time>2022-03-09T14:21:26.516Z</time>
      </trkpt>
      <trkpt lat="45.95598" lon="4.57173">
        <ele>383.79726300736</ele>
        <time>2022-03-09T14:21:29.535Z</time>
      </trkpt>
      <trkpt lat="45.95592" lon="4.57169">
        <ele>382.74456683918</ele>
        <time>2022-03-09T14:21:30.228Z</time>
      </trkpt>
      <trkpt lat="45.95591" lon="4.57165">
        <ele>381.66908985449</ele>
        <time>2022-03-09T14:21:30.538Z</time>
      </trkpt>
      <trkpt lat="45.95594" lon="4.57132">
        <ele>380.63438470889</ele>
        <time>2022-03-09T14:21:33.202Z</time>
      </trkpt>
      <trkpt lat="45.95593" lon="4.57128">
        <ele>379.41099217813</ele>
        <time>2022-03-09T14:21:33.512Z</time>
      </trkpt>
      <trkpt lat="45.9559" lon="4.57129">
        <ele>378.09830705794</ele>
        <time>2022-03-09T14:21:33.834Z</time>
      </trkpt>
      <trkpt lat="45.95587" lon="4.57136">
        <ele>376.69572297123</ele>
        <time>2022-03-09T14:21:34.433Z</time>
      </trkpt>
      <trkpt lat="45.95565" lon="4.57167">
        <ele>374.9664227327</ele>
        <time>2022-03-09T14:21:37.646Z</time>
      </trkpt>
      <trkpt lat="45.95552" lon="4.57191">
        <ele>373.36723225811</ele>
        <time>2022-03-09T14:21:39.862Z</time>
      </trkpt>
      <trkpt lat="45.95546" lon="4.5721">
        <ele>371.89697641183</ele>
        <time>2022-03-09T14:21:41.382Z</time>
      </trkpt>
      <trkpt lat="45.95544" lon="4.57213">
        <ele>370.46416417805</ele>
        <time>2022-03-09T14:21:41.685Z</time>
      </trkpt>
      <trkpt lat="45.95532" lon="4.57193">
        <ele>368.96068467784</ele>
        <time>2022-03-09T14:21:43.609Z</time>
      </trkpt>
      <trkpt lat="45.95497" lon="4.57148">
        <ele>367.48731033117</ele>
        <time>2022-03-09T14:21:49.761Z</time>
      </trkpt>
      <trkpt lat="45.95465" lon="4.57094">
        <ele>365.99497275884</ele>
        <time>2022-03-09T14:21:56.301Z</time>
      </trkpt>
      <trkpt lat="45.95434" lon="4.57047">
        <ele>364.58236469498</ele>
        <time>2022-03-09T14:22:02.204Z</time>
      </trkpt>
      <trkpt lat="45.95413" lon="4.56988">
        <ele>363.36594673823</ele>
        <time>2022-03-09T14:22:08.571Z</time>
      </trkpt>
      <trkpt lat="45.95398" lon="4.56954">
        <ele>362.17399519036</ele>
        <time>2022-03-09T14:22:11.858Z</time>
      </trkpt>
      <trkpt lat="45.95373" lon="4.56884">
        <ele>360.99563566225</ele>
        <time>2022-03-09T14:22:19.841Z</time>
      </trkpt>
      <trkpt lat="45.95358" lon="4.56836">
        <ele>360.07826770268</ele>
        <time>2022-03-09T14:22:24.970Z</time>
      </trkpt>
      <trkpt lat="45.95328" lon="4.56786">
        <ele>358.98194517282</ele>
        <time>2022-03-09T14:22:31.493Z</time>
      </trkpt>
      <trkpt lat="45.95325" lon="4.56773">
        <ele>358.15284637118</ele>
        <time>2022-03-09T14:22:32.491Z</time>
      </trkpt>
      <trkpt lat="45.95325" lon="4.5676">
        <ele>357.44749577581</ele>
        <time>2022-03-09T14:22:33.438Z</time>
      </trkpt>
      <trkpt lat="45.95329" lon="4.56747">
        <ele>356.86035783866</ele>
        <time>2022-03-09T14:22:34.442Z</time>
      </trkpt>
      <trkpt lat="45.95329" lon="4.56737">
        <ele>356.33142525656</ele>
        <time>2022-03-09T14:22:35.170Z</time>
      </trkpt>
      <trkpt lat="45.95327" lon="4.56733">
        <ele>355.83572777406</ele>
        <time>2022-03-09T14:22:35.529Z</time>
      </trkpt>
      <trkpt lat="45.95313" lon="4.56727">
        <ele>355.32247411273</ele>
        <time>2022-03-09T14:22:37.372Z</time>
      </trkpt>
      <trkpt lat="45.95302" lon="4.56717">
        <ele>354.90883691326</ele>
        <time>2022-03-09T14:22:39.070Z</time>
      </trkpt>
      <trkpt lat="45.95297" lon="4.56707">
        <ele>354.60640380216</ele>
        <time>2022-03-09T14:22:40.148Z</time>
      </trkpt>
      <trkpt lat="45.95294" lon="4.56697">
        <ele>354.38632838782</ele>
        <time>2022-03-09T14:22:41.165Z</time>
      </trkpt>
      <trkpt lat="45.95293" lon="4.56654">
        <ele>354.35983205566</ele>
        <time>2022-03-09T14:22:48.331Z</time>
      </trkpt>
      <trkpt lat="45.95295" lon="4.5664">
        <ele>354.27246092207</ele>
        <time>2022-03-09T14:22:50.031Z</time>
      </trkpt>
      <trkpt lat="45.95294" lon="4.56627">
        <ele>354.18627140893</ele>
        <time>2022-03-09T14:22:51.571Z</time>
      </trkpt>
      <trkpt lat="45.95297" lon="4.56592">
        <ele>354.19771890019</ele>
        <time>2022-03-09T14:22:57.551Z</time>
      </trkpt>
      <trkpt lat="45.9529" lon="4.56535">
        <ele>354.09373389023</ele>
        <time>2022-03-09T14:23:06.951Z</time>
      </trkpt>
      <trkpt lat="45.95282" lon="4.56499">
        <ele>354.09870282621</ele>
        <time>2022-03-09T14:23:13.343Z</time>
      </trkpt>
      <trkpt lat="45.95274" lon="4.5648">
        <ele>353.99504231406</ele>
        <time>2022-03-09T14:23:16.743Z</time>
      </trkpt>
      <trkpt lat="45.95272" lon="4.56452">
        <ele>353.88457878812</ele>
        <time>2022-03-09T14:23:21.117Z</time>
      </trkpt>
      <trkpt lat="45.95263" lon="4.5641">
        <ele>353.67296307292</ele>
        <time>2022-03-09T14:23:27.825Z</time>
      </trkpt>
      <trkpt lat="45.95254" lon="4.56373">
        <ele>353.38502370816</ele>
        <time>2022-03-09T14:23:32.377Z</time>
      </trkpt>
      <trkpt lat="45.95237" lon="4.56325">
        <ele>353.21412450969</ele>
        <time>2022-03-09T14:23:40.877Z</time>
      </trkpt>
      <trkpt lat="45.95219" lon="4.56238">
        <ele>352.96987483263</ele>
        <time>2022-03-09T14:23:55.344Z</time>
      </trkpt>
      <trkpt lat="45.95204" lon="4.56181">
        <ele>352.58656066786</ele>
        <time>2022-03-09T14:24:02.566Z</time>
      </trkpt>
      <trkpt lat="45.95192" lon="4.5614">
        <ele>352.39405010074</ele>
        <time>2022-03-09T14:24:09.422Z</time>
      </trkpt>
      <trkpt lat="45.95191" lon="4.56132">
        <ele>352.28837579654</ele>
        <time>2022-03-09T14:24:10.274Z</time>
      </trkpt>
      <trkpt lat="45.95193" lon="4.56109">
        <ele>352.18708278455</ele>
        <time>2022-03-09T14:24:13.844Z</time>
      </trkpt>
      <trkpt lat="45.95191" lon="4.56096">
        <ele>352.0820064382</ele>
        <time>2022-03-09T14:24:15.374Z</time>
      </trkpt>
      <trkpt lat="45.95193" lon="4.5609">
        <ele>352.03204358736</ele>
        <time>2022-03-09T14:24:16.144Z</time>
      </trkpt>
      <trkpt lat="45.95201" lon="4.56092">
        <ele>352.07840971968</ele>
        <time>2022-03-09T14:24:18.225Z</time>
      </trkpt>
      <trkpt lat="45.95221" lon="4.56085">
        <ele>352.20450688325</ele>
        <time>2022-03-09T14:24:23.521Z</time>
      </trkpt>
      <trkpt lat="45.95228" lon="4.56073">
        <ele>352.2256005542</ele>
        <time>2022-03-09T14:24:26.213Z</time>
      </trkpt>
      <trkpt lat="45.95227" lon="4.56061">
        <ele>352.17199236538</ele>
        <time>2022-03-09T14:24:28.072Z</time>
      </trkpt>
      <trkpt lat="45.95224" lon="4.56055">
        <ele>352.09848875647</ele>
        <time>2022-03-09T14:24:28.890Z</time>
      </trkpt>
      <trkpt lat="45.95215" lon="4.56046">
        <ele>351.9689465859</ele>
        <time>2022-03-09T14:24:30.690Z</time>
      </trkpt>
      <trkpt lat="45.95165" lon="4.56017">
        <ele>351.7437816713</ele>
        <time>2022-03-09T14:24:42.995Z</time>
      </trkpt>
      <trkpt lat="45.95156" lon="4.56006">
        <ele>351.67109437399</ele>
        <time>2022-03-09T14:24:45.616Z</time>
      </trkpt>
      <trkpt lat="45.95154" lon="4.56">
        <ele>351.60349001399</ele>
        <time>2022-03-09T14:24:46.349Z</time>
      </trkpt>
      <trkpt lat="45.95152" lon="4.55986">
        <ele>351.54573253383</ele>
        <time>2022-03-09T14:24:48.565Z</time>
      </trkpt>
      <trkpt lat="45.95158" lon="4.55958">
        <ele>351.57164692891</ele>
        <time>2022-03-09T14:24:53.570Z</time>
      </trkpt>
      <trkpt lat="45.9516" lon="4.55931">
        <ele>351.46062152195</ele>
        <time>2022-03-09T14:24:57.775Z</time>
      </trkpt>
      <trkpt lat="45.95158" lon="4.55915">
        <ele>351.28346396681</ele>
        <time>2022-03-09T14:24:59.544Z</time>
      </trkpt>
      <trkpt lat="45.95149" lon="4.55902">
        <ele>351.03533586305</ele>
        <time>2022-03-09T14:25:01.451Z</time>
      </trkpt>
      <trkpt lat="45.95144" lon="4.55898">
        <ele>350.7097075581</ele>
        <time>2022-03-09T14:25:02.044Z</time>
      </trkpt>
      <trkpt lat="45.95131" lon="4.55894">
        <ele>350.31031279464</ele>
        <time>2022-03-09T14:25:03.810Z</time>
      </trkpt>
      <trkpt lat="45.95113" lon="4.55895">
        <ele>349.80920452023</ele>
        <time>2022-03-09T14:25:06.261Z</time>
      </trkpt>
      <trkpt lat="45.95099" lon="4.55898">
        <ele>349.24689515854</ele>
        <time>2022-03-09T14:25:07.968Z</time>
      </trkpt>
      <trkpt lat="45.95084" lon="4.55897">
        <ele>348.62693756083</ele>
        <time>2022-03-09T14:25:09.753Z</time>
      </trkpt>
      <trkpt lat="45.95071" lon="4.5589">
        <ele>347.98621265434</ele>
        <time>2022-03-09T14:25:11.331Z</time>
      </trkpt>
      <trkpt lat="45.95061" lon="4.55878">
        <ele>347.27035594909</ele>
        <time>2022-03-09T14:25:12.702Z</time>
      </trkpt>
      <trkpt lat="45.95056" lon="4.55865">
        <ele>346.55237928834</ele>
        <time>2022-03-09T14:25:13.785Z</time>
      </trkpt>
      <trkpt lat="45.9505" lon="4.55843">
        <ele>345.8309887673</ele>
        <time>2022-03-09T14:25:15.691Z</time>
      </trkpt>
      <trkpt lat="45.95033" lon="4.55806">
        <ele>344.97497487999</ele>
        <time>2022-03-09T14:25:19.888Z</time>
      </trkpt>
      <trkpt lat="45.95025" lon="4.55781">
        <ele>344.16573621929</ele>
        <time>2022-03-09T14:25:22.141Z</time>
      </trkpt>
      <trkpt lat="45.95009" lon="4.55756">
        <ele>343.27257370721</ele>
        <time>2022-03-09T14:25:25.044Z</time>
      </trkpt>
      <trkpt lat="45.94993" lon="4.55714">
        <ele>342.37317950368</ele>
        <time>2022-03-09T14:25:29.614Z</time>
      </trkpt>
      <trkpt lat="45.94983" lon="4.557">
        <ele>341.60927572893</ele>
        <time>2022-03-09T14:25:31.087Z</time>
      </trkpt>
      <trkpt lat="45.94968" lon="4.55686">
        <ele>340.83144169413</ele>
        <time>2022-03-09T14:25:33.169Z</time>
      </trkpt>
      <trkpt lat="45.94967" lon="4.55683">
        <ele>340.09944470187</ele>
        <time>2022-03-09T14:25:33.411Z</time>
      </trkpt>
      <trkpt lat="45.94966" lon="4.55672">
        <ele>339.44643452988</ele>
        <time>2022-03-09T14:25:34.219Z</time>
      </trkpt>
      <trkpt lat="45.94962" lon="4.55664">
        <ele>338.72001031105</ele>
        <time>2022-03-09T14:25:34.937Z</time>
      </trkpt>
      <trkpt lat="45.94955" lon="4.55654">
        <ele>337.97952760876</ele>
        <time>2022-03-09T14:25:35.971Z</time>
      </trkpt>
      <trkpt lat="45.94925" lon="4.55618">
        <ele>337.07814459463</ele>
        <time>2022-03-09T14:25:41.572Z</time>
      </trkpt>
      <trkpt lat="45.94902" lon="4.55574">
        <ele>336.47498522605</ele>
        <time>2022-03-09T14:25:47.555Z</time>
      </trkpt>
      <trkpt lat="45.94878" lon="4.55542">
        <ele>335.58597492908</ele>
        <time>2022-03-09T14:25:52.039Z</time>
      </trkpt>
      <trkpt lat="45.94844" lon="4.55467">
        <ele>334.8726134537</ele>
        <time>2022-03-09T14:26:02.314Z</time>
      </trkpt>
      <trkpt lat="45.94832" lon="4.55432">
        <ele>334.15386972635</ele>
        <time>2022-03-09T14:26:06.059Z</time>
      </trkpt>
      <trkpt lat="45.94826" lon="4.55393">
        <ele>333.50232067113</ele>
        <time>2022-03-09T14:26:10.023Z</time>
      </trkpt>
      <trkpt lat="45.94822" lon="4.55372">
        <ele>332.87151694966</ele>
        <time>2022-03-09T14:26:11.816Z</time>
      </trkpt>
      <trkpt lat="45.94803" lon="4.55341">
        <ele>332.13097567118</ele>
        <time>2022-03-09T14:26:15.813Z</time>
      </trkpt>
      <trkpt lat="45.94778" lon="4.55274">
        <ele>331.47472268051</ele>
        <time>2022-03-09T14:26:24.433Z</time>
      </trkpt>
      <trkpt lat="45.94773" lon="4.55255">
        <ele>330.99248157845</ele>
        <time>2022-03-09T14:26:26.232Z</time>
      </trkpt>
      <trkpt lat="45.94771" lon="4.55237">
        <ele>330.61042690607</ele>
        <time>2022-03-09T14:26:27.915Z</time>
      </trkpt>
      <trkpt lat="45.94768" lon="4.55173">
        <ele>330.23570931331</ele>
        <time>2022-03-09T14:26:35.582Z</time>
      </trkpt>
      <trkpt lat="45.94771" lon="4.5508">
        <ele>329.88197025662</ele>
        <time>2022-03-09T14:26:50.087Z</time>
      </trkpt>
      <trkpt lat="45.94768" lon="4.55056">
        <ele>329.45895672711</ele>
        <time>2022-03-09T14:26:52.467Z</time>
      </trkpt>
      <trkpt lat="45.9476" lon="4.55018">
        <ele>328.96500065791</ele>
        <time>2022-03-09T14:26:56.672Z</time>
      </trkpt>
      <trkpt lat="45.94759" lon="4.55002">
        <ele>328.77371483442</ele>
        <time>2022-03-09T14:26:58.389Z</time>
      </trkpt>
      <trkpt lat="45.94763" lon="4.54985">
        <ele>328.80283920716</ele>
        <time>2022-03-09T14:27:01.485Z</time>
      </trkpt>
      <trkpt lat="45.94773" lon="4.54972">
        <ele>328.97986674756</ele>
        <time>2022-03-09T14:27:05.206Z</time>
      </trkpt>
      <trkpt lat="45.94785" lon="4.54963">
        <ele>329.30563125068</ele>
        <time>2022-03-09T14:27:09.422Z</time>
      </trkpt>
      <trkpt lat="45.94809" lon="4.54952">
        <ele>329.86249102167</ele>
        <time>2022-03-09T14:27:17.092Z</time>
      </trkpt>
      <trkpt lat="45.94825" lon="4.5494">
        <ele>330.35299300259</ele>
        <time>2022-03-09T14:27:22.927Z</time>
      </trkpt>
      <trkpt lat="45.94849" lon="4.54919">
        <ele>330.91592733023</ele>
        <time>2022-03-09T14:27:31.282Z</time>
      </trkpt>
      <trkpt lat="45.94852" lon="4.54915">
        <ele>331.36299371582</ele>
        <time>2022-03-09T14:27:34.122Z</time>
      </trkpt>
      <trkpt lat="45.94853" lon="4.54904">
        <ele>331.87807695228</ele>
        <time>2022-03-09T14:27:37.802Z</time>
      </trkpt>
      <trkpt lat="45.9485" lon="4.54896">
        <ele>332.4276305872</ele>
        <time>2022-03-09T14:27:41.343Z</time>
      </trkpt>
      <trkpt lat="45.94846" lon="4.54893">
        <ele>333.01653829121</ele>
        <time>2022-03-09T14:27:45.399Z</time>
      </trkpt>
      <trkpt lat="45.94831" lon="4.5489">
        <ele>333.65299103487</ele>
        <time>2022-03-09T14:27:51.378Z</time>
      </trkpt>
      <trkpt lat="45.94806" lon="4.54879">
        <ele>334.34520337951</ele>
        <time>2022-03-09T14:27:59.759Z</time>
      </trkpt>
      <trkpt lat="45.94791" lon="4.54866">
        <ele>335.10698558312</ele>
        <time>2022-03-09T14:28:06.829Z</time>
      </trkpt>
      <trkpt lat="45.94784" lon="4.54847">
        <ele>335.95211851205</ele>
        <time>2022-03-09T14:28:13.461Z</time>
      </trkpt>
      <trkpt lat="45.94784" lon="4.54839">
        <ele>336.84478999962</ele>
        <time>2022-03-09T14:28:18.671Z</time>
      </trkpt>
      <trkpt lat="45.94788" lon="4.54822">
        <ele>337.82210133356</ele>
        <time>2022-03-09T14:28:25.176Z</time>
      </trkpt>
      <trkpt lat="45.94787" lon="4.54817">
        <ele>338.76152058649</ele>
        <time>2022-03-09T14:28:28.565Z</time>
      </trkpt>
      <trkpt lat="45.94752" lon="4.54798">
        <ele>339.78034222122</ele>
        <time>2022-03-09T14:28:40.669Z</time>
      </trkpt>
      <trkpt lat="45.94742" lon="4.54786">
        <ele>340.80396959861</ele>
        <time>2022-03-09T14:28:47.474Z</time>
      </trkpt>
      <trkpt lat="45.94738" lon="4.54774">
        <ele>341.81041172829</ele>
        <time>2022-03-09T14:28:53.863Z</time>
      </trkpt>
      <trkpt lat="45.94735" lon="4.5476">
        <ele>342.81220941351</ele>
        <time>2022-03-09T14:29:00.193Z</time>
      </trkpt>
      <trkpt lat="45.94734" lon="4.5471">
        <ele>343.85889573936</ele>
        <time>2022-03-09T14:29:11.853Z</time>
      </trkpt>
      <trkpt lat="45.94701" lon="4.54651">
        <ele>344.54482057673</ele>
        <time>2022-03-09T14:29:26.371Z</time>
      </trkpt>
      <trkpt lat="45.94665" lon="4.5459">
        <ele>345.39965092395</ele>
        <time>2022-03-09T14:29:42.093Z</time>
      </trkpt>
      <trkpt lat="45.94648" lon="4.54557">
        <ele>346.24908125179</ele>
        <time>2022-03-09T14:29:51.625Z</time>
      </trkpt>
      <trkpt lat="45.94618" lon="4.54507">
        <ele>346.91218876704</ele>
        <time>2022-03-09T14:30:04.476Z</time>
      </trkpt>
      <trkpt lat="45.94593" lon="4.54455">
        <ele>347.24606039051</ele>
        <time>2022-03-09T14:30:15.949Z</time>
      </trkpt>
      <trkpt lat="45.94588" lon="4.54435">
        <ele>347.81738687567</ele>
        <time>2022-03-09T14:30:21.505Z</time>
      </trkpt>
      <trkpt lat="45.94587" lon="4.54281">
        <ele>348.31640718574</ele>
        <time>2022-03-09T14:30:48.669Z</time>
      </trkpt>
      <trkpt lat="45.94591" lon="4.54271">
        <ele>348.74667417861</ele>
        <time>2022-03-09T14:30:52.158Z</time>
      </trkpt>
      <trkpt lat="45.94606" lon="4.54268">
        <ele>349.08132653676</ele>
        <time>2022-03-09T14:30:56.769Z</time>
      </trkpt>
      <trkpt lat="45.94622" lon="4.54268">
        <ele>349.2705416193</ele>
        <time>2022-03-09T14:31:01.126Z</time>
      </trkpt>
      <trkpt lat="45.94647" lon="4.54273">
        <ele>349.3048822838</ele>
        <time>2022-03-09T14:31:07.333Z</time>
      </trkpt>
      <trkpt lat="45.94693" lon="4.54285">
        <ele>349.31455575364</ele>
        <time>2022-03-09T14:31:18.707Z</time>
      </trkpt>
      <trkpt lat="45.94715" lon="4.54297">
        <ele>349.22610187676</ele>
        <time>2022-03-09T14:31:24.109Z</time>
      </trkpt>
      <trkpt lat="45.94745" lon="4.54318">
        <ele>348.97972131556</ele>
        <time>2022-03-09T14:31:29.925Z</time>
      </trkpt>
      <trkpt lat="45.94762" lon="4.54339">
        <ele>348.47430924573</ele>
        <time>2022-03-09T14:31:33.157Z</time>
      </trkpt>
      <trkpt lat="45.94764" lon="4.54339">
        <ele>347.37017060836</ele>
        <time>2022-03-09T14:31:33.367Z</time>
      </trkpt>
      <trkpt lat="45.94765" lon="4.54336">
        <ele>345.94913790834</ele>
        <time>2022-03-09T14:31:33.609Z</time>
      </trkpt>
      <trkpt lat="45.94748" lon="4.54308">
        <ele>343.9572386129</ele>
        <time>2022-03-09T14:31:36.317Z</time>
      </trkpt>
      <trkpt lat="45.94734" lon="4.54296">
        <ele>341.984541697</ele>
        <time>2022-03-09T14:31:38.025Z</time>
      </trkpt>
      <trkpt lat="45.94721" lon="4.54275">
        <ele>339.74650191182</ele>
        <time>2022-03-09T14:31:40.074Z</time>
      </trkpt>
      <trkpt lat="45.94709" lon="4.54264">
        <ele>337.33332968737</ele>
        <time>2022-03-09T14:31:41.565Z</time>
      </trkpt>
      <trkpt lat="45.94702" lon="4.54252">
        <ele>334.53623879961</ele>
        <time>2022-03-09T14:31:42.706Z</time>
      </trkpt>
      <trkpt lat="45.94672" lon="4.54178">
        <ele>330.92845579967</ele>
        <time>2022-03-09T14:31:48.700Z</time>
      </trkpt>
      <trkpt lat="45.94656" lon="4.54103">
        <ele>327.53940864595</ele>
        <time>2022-03-09T14:31:54.123Z</time>
      </trkpt>
      <trkpt lat="45.94645" lon="4.54072">
        <ele>324.40419806384</ele>
        <time>2022-03-09T14:31:56.658Z</time>
      </trkpt>
      <trkpt lat="45.9463" lon="4.5404">
        <ele>321.18486456384</ele>
        <time>2022-03-09T14:31:59.470Z</time>
      </trkpt>
      <trkpt lat="45.94627" lon="4.54019">
        <ele>317.94446119844</ele>
        <time>2022-03-09T14:32:01.032Z</time>
      </trkpt>
      <trkpt lat="45.94622" lon="4.54001">
        <ele>314.57501620071</ele>
        <time>2022-03-09T14:32:02.444Z</time>
      </trkpt>
      <trkpt lat="45.94608" lon="4.53963">
        <ele>310.83579960809</ele>
        <time>2022-03-09T14:32:05.577Z</time>
      </trkpt>
      <trkpt lat="45.94586" lon="4.53913">
        <ele>307.15768537177</ele>
        <time>2022-03-09T14:32:09.888Z</time>
      </trkpt>
      <trkpt lat="45.94583" lon="4.53893">
        <ele>303.70511487826</ele>
        <time>2022-03-09T14:32:11.379Z</time>
      </trkpt>
      <trkpt lat="45.94581" lon="4.53848">
        <ele>300.10799092044</ele>
        <time>2022-03-09T14:32:14.665Z</time>
      </trkpt>
      <trkpt lat="45.94571" lon="4.53779">
        <ele>296.460962344</ele>
        <time>2022-03-09T14:32:19.800Z</time>
      </trkpt>
      <trkpt lat="45.94568" lon="4.53769">
        <ele>293.5715089509</ele>
        <time>2022-03-09T14:32:20.593Z</time>
      </trkpt>
      <trkpt lat="45.94557" lon="4.53757">
        <ele>290.75767667694</ele>
        <time>2022-03-09T14:32:22.040Z</time>
      </trkpt>
      <trkpt lat="45.94555" lon="4.53753">
        <ele>288.22690931619</ele>
        <time>2022-03-09T14:32:22.399Z</time>
      </trkpt>
      <trkpt lat="45.94555" lon="4.53752">
        <ele>285.83171741955</ele>
        <time>2022-03-09T14:32:22.472Z</time>
      </trkpt>
      <trkpt lat="45.94571" lon="4.53733">
        <ele>283.46452195994</ele>
        <time>2022-03-09T14:32:24.646Z</time>
      </trkpt>
      <trkpt lat="45.94577" lon="4.53724">
        <ele>281.32313439716</ele>
        <time>2022-03-09T14:32:25.554Z</time>
      </trkpt>
      <trkpt lat="45.94579" lon="4.53715">
        <ele>279.32189266239</ele>
        <time>2022-03-09T14:32:26.243Z</time>
      </trkpt>
      <trkpt lat="45.94576" lon="4.53704">
        <ele>277.39305915064</ele>
        <time>2022-03-09T14:32:27.104Z</time>
      </trkpt>
      <trkpt lat="45.94566" lon="4.53689">
        <ele>275.61700153831</ele>
        <time>2022-03-09T14:32:28.618Z</time>
      </trkpt>
      <trkpt lat="45.94567" lon="4.53685">
        <ele>274.1657192934</ele>
        <time>2022-03-09T14:32:28.927Z</time>
      </trkpt>
      <trkpt lat="45.94576" lon="4.53659">
        <ele>272.829662183</ele>
        <time>2022-03-09T14:32:30.873Z</time>
      </trkpt>
      <trkpt lat="45.94577" lon="4.53648">
        <ele>271.65600410411</ele>
        <time>2022-03-09T14:32:31.682Z</time>
      </trkpt>
      <trkpt lat="45.94571" lon="4.53639">
        <ele>270.67334858122</ele>
        <time>2022-03-09T14:32:32.590Z</time>
      </trkpt>
      <trkpt lat="45.94567" lon="4.53639">
        <ele>269.97823090779</ele>
        <time>2022-03-09T14:32:33.009Z</time>
      </trkpt>
      <trkpt lat="45.94566" lon="4.53641">
        <ele>269.45436266647</ele>
        <time>2022-03-09T14:32:33.189Z</time>
      </trkpt>
      <trkpt lat="45.94567" lon="4.53648">
        <ele>269.0559997746</ele>
        <time>2022-03-09T14:32:33.709Z</time>
        <extensions>
          <visugpx:TrkExtension xmlns:visugpx="https://www.visugpx.com/editgpx/">
            <visugpx:node>1</visugpx:node>
            </visugpx:TrkExtension>
        </extensions>
      </trkpt>
    </trkseg>
  </trk>
</gpx>